M I D A S
Marine Information and Data Acquisition System
Tripno 1239 of the Zeeleeuw from 2007-03-26 07:10:47 to 2007-03-26 15:19:56
Back to CruiseResearch ActivitiesStationsMapUnderway DataData graphs

EquipmentUnitsComment
TimeDGPSUTC
LatitudeDGPSDM.mWGS84
LongitudeDGPSDM.mWGS84
TemperatureSBE03/SBE38deg celciusITS90
ConductivitySBE21S/mITS90
SalinitySBE21 Practical Salinity Units
ChlorophylAChelsea fluorimeterg/lCalibrated in Aceton
Missing or incorrect values are displayed as -999
Sea surface data collected by the RV Zeeleeuw from 2007-03-26 06:50:44 to 2007-03-26 15:31:24
                                                                                    Next 1000 lines
Time Latitude Longitude Temperature Conductivity Salinity ChlorophylA
2007-03-26 06:50:54 51°13.6 2°56.099 7.9656 2.75115 24.763996 -2.871232
2007-03-26 06:50:59 51°13.6 2°56.099 7.9633 2.67661 24.004723 -2.871232
2007-03-26 06:51:03 51°13.6 2°56.099 7.9594 2.629267 23.521132 -2.871232
2007-03-26 06:51:08 51°13.6 2°56.098 7.9678 2.610455 23.342648 -2.871232
2007-03-26 06:51:13 51°13.6 2°56.097 7.9688 2.597432 23.227407 -2.871232
2007-03-26 06:51:18 51°13.6 2°56.095 7.971 2.597432 23.227407 -2.871232
2007-03-26 06:51:23 51°13.6 2°56.091 7.9784 2.588957 23.151115 -2.871232
2007-03-26 06:51:27 51°13.6 2°56.088 7.9896 2.580171 23.065477 -2.871232
2007-03-26 06:51:32 51°13.6 2°56.083 7.9952 2.576347 23.029193 -2.871232
2007-03-26 06:51:38 51°13.601 2°56.076 7.9948 2.569629 22.963258 -2.871232
2007-03-26 06:51:43 51°13.601 2°56.069 7.9782 2.567149 22.937043 -2.871232
2007-03-26 06:51:49 51°13.602 2°56.06 7.9792 2.567149 22.937043 -2.871232
2007-03-26 06:51:54 51°13.603 2°56.052 7.9793 2.561568 22.880424 -2.871232
2007-03-26 06:51:59 51°13.604 2°56.042 7.9857 2.559501 22.857037 -2.871232
2007-03-26 06:52:04 51°13.605 2°56.033 7.9829 2.558157 22.838884 -2.871232
2007-03-26 06:52:09 51°13.606 2°56.023 7.981 2.558881 22.84224 -2.871232
2007-03-26 06:52:14 51°13.607 2°56.013 7.9864 2.594538 23.193924 -2.871232
2007-03-26 06:52:19 51°13.609 2°56.003 7.9844 2.594538 23.193924 -2.871232
2007-03-26 06:52:24 51°13.611 2°55.993 7.9811 2.624409 23.489375 -2.871232
2007-03-26 06:52:29 51°13.613 2°55.983 7.9806 2.664619 23.886519 -2.871232
2007-03-26 06:52:34 51°13.616 2°55.973 7.9771 2.704936 24.284216 -2.871232
2007-03-26 06:52:39 51°13.618 2°55.963 7.9762 2.73254 24.556956 -2.871232
2007-03-26 06:52:44 51°13.621 2°55.954 7.9698 2.768416 24.911984 -2.871232
2007-03-26 06:52:49 51°13.625 2°55.944 7.9645 2.797575 25.20098 -2.871232
2007-03-26 06:52:54 51°13.628 2°55.935 7.9662 2.797575 25.20098 -2.871232
2007-03-26 06:52:59 51°13.632 2°55.926 7.9572 2.813189 25.356592 -2.871232
2007-03-26 06:53:04 51°13.636 2°55.917 7.9565 2.830251 25.526714 -2.871232
2007-03-26 06:53:09 51°13.64 2°55.908 7.9567 2.848658 25.711058 -2.871232
2007-03-26 06:53:14 51°13.644 2°55.899 7.954 2.849899 25.726906 -2.871232
2007-03-26 06:53:19 51°13.649 2°55.89 7.9536 2.849899 25.726906 -2.871232
2007-03-26 06:53:24 51°13.653 2°55.882 7.9525 2.847107 25.702644 -2.871232
2007-03-26 06:53:29 51°13.658 2°55.873 7.9537 2.848659 25.720879 -2.871232
2007-03-26 06:53:34 51°13.662 2°55.865 7.9504 2.848245 25.719571 -2.871232
2007-03-26 06:53:39 51°13.668 2°55.856 7.9517 2.853105 25.770039 -2.871232
2007-03-26 06:53:44 51°13.673 2°55.847 7.9548 2.851658 25.757741 -2.871232
2007-03-26 06:53:49 51°13.679 2°55.839 7.9542 2.851658 25.757741 -2.871232
2007-03-26 06:53:54 51°13.684 2°55.83 7.9581 2.857966 25.821937 -2.871232
2007-03-26 06:53:59 51°13.69 2°55.821 7.9567 2.857759 25.821287 -2.871232
2007-03-26 06:54:04 51°13.696 2°55.812 7.9553 2.857966 25.824051 -2.871232
2007-03-26 06:54:09 51°13.702 2°55.804 7.961 2.870997 25.95453 -2.871232
2007-03-26 06:54:14 51°13.707 2°55.797 7.9583 2.874926 25.992974 -2.871232
2007-03-26 06:54:19 51°13.713 2°55.789 7.9568 2.874926 25.992974 -2.871232
2007-03-26 06:54:24 51°13.718 2°55.781 7.955 2.887027 26.112861 -2.871232
2007-03-26 06:54:29 51°13.723 2°55.773 7.9529 2.896438 26.205277 -2.871232
2007-03-26 06:54:34 51°13.728 2°55.765 7.95 2.901403 26.254793 -2.871232
2007-03-26 06:54:39 51°13.733 2°55.758 7.9464 2.905643 26.29638 -2.871232
2007-03-26 06:54:44 51°13.737 2°55.75 7.9438 2.909263 26.331781 -2.871232
2007-03-26 06:54:49 51°13.741 2°55.743 7.9399 2.911435 26.354175 -2.871232
2007-03-26 06:54:54 51°13.745 2°55.737 7.9383 2.911435 26.354175 -2.871232
2007-03-26 06:54:59 51°13.749 2°55.731 7.9352 2.90585 26.299162 -2.871232
2007-03-26 06:55:04 51°13.752 2°55.725 7.9339 2.891681 26.159977 -2.871232
2007-03-26 06:55:08 51°13.755 2°55.72 7.9348 2.878856 26.034978 -2.871232
2007-03-26 06:55:14 51°13.758 2°55.715 7.9375 2.86748 25.923749 -2.871232
2007-03-26 06:55:18 51°13.759 2°55.712 7.9311 2.86748 25.923749 -2.871232
2007-03-26 06:55:23 51°13.761 2°55.709 7.924 2.856105 25.812566 -2.871232
2007-03-26 06:55:28 51°13.762 2°55.707 7.9165 2.846591 25.720658 -2.871232
2007-03-26 06:55:33 51°13.763 2°55.706 7.9129 2.836456 25.621901 -2.871232
2007-03-26 06:55:39 51°13.764 2°55.706 7.9169 2.835525 25.61334 -2.871232
2007-03-26 06:55:44 51°13.764 2°55.707 7.9182 2.837077 25.629475 -2.871232
2007-03-26 06:55:49 51°13.765 2°55.708 7.9153 2.837077 25.629475 -2.871232
2007-03-26 06:55:54 51°13.765 2°55.708 7.9165 2.82777 25.538974 -2.871232
2007-03-26 06:55:59 51°13.766 2°55.707 7.9078 2.81381 25.403622 -2.871232
2007-03-26 06:56:03 51°13.766 2°55.706 7.8973 2.794887 25.221772 -2.871232
2007-03-26 06:56:08 51°13.766 2°55.703 7.8903 2.789097 25.165623 -2.871232
2007-03-26 06:56:13 51°13.765 2°55.699 7.8836 2.78889 25.164256 -2.871232
2007-03-26 06:56:18 51°13.765 2°55.695 7.8747 2.78889 25.164256 -2.871232
2007-03-26 06:56:23 51°13.764 2°55.69 7.8745 2.787752 25.154332 -2.871232
2007-03-26 06:56:28 51°13.763 2°55.685 7.8802 2.777516 25.053356 -2.871232
2007-03-26 06:56:34 51°13.762 2°55.68 7.8876 2.748566 24.770844 -2.871232
2007-03-26 06:56:39 51°13.762 2°55.677 7.8949 2.720754 24.499907 -2.871232
2007-03-26 06:56:44 51°13.761 2°55.674 7.8947 2.691084 24.214153 -2.871232
2007-03-26 06:56:49 51°13.761 2°55.672 7.8968 2.691084 24.214153 -2.871232
2007-03-26 06:56:54 51°13.761 2°55.671 7.8975 2.673303 24.042895 -2.871232
2007-03-26 06:56:59 51°13.762 2°55.671 7.898 2.668445 23.997484 -2.871232
2007-03-26 06:57:04 51°13.763 2°55.671 7.8989 2.685708 24.167576 -2.871232
2007-03-26 06:57:09 51°13.764 2°55.672 7.8905 2.706074 24.36586 -2.871232
2007-03-26 06:57:14 51°13.766 2°55.674 7.8774 2.719204 24.493249 -2.871232
2007-03-26 06:57:19 51°13.769 2°55.675 7.8747 2.719204 24.493249 -2.871232
2007-03-26 06:57:23 51°13.771 2°55.676 7.8713 2.735228 24.650071 -2.871232
2007-03-26 06:57:28 51°13.775 2°55.677 7.8639 2.746808 24.763565 -2.871232
2007-03-26 06:57:33 51°13.779 2°55.678 7.8617 2.750427 24.798789 -2.871232
2007-03-26 06:57:38 51°13.783 2°55.677 7.8635 2.742466 24.721167 -2.871232
2007-03-26 06:57:43 51°13.788 2°55.676 7.8663 2.714448 24.447469 -2.871232
2007-03-26 06:57:47 51°13.792 2°55.675 7.8681 2.714448 24.447469 -2.871232
2007-03-26 06:57:52 51°13.797 2°55.672 7.871 2.690981 24.221076 -2.871232
2007-03-26 06:57:57 51°13.803 2°55.669 7.8784 2.672373 24.041585 -2.871232
2007-03-26 06:58:02 51°13.809 2°55.665 7.8769 2.662759 23.95045 -2.871232
2007-03-26 06:58:07 51°13.816 2°55.66 7.8804 2.65604 23.887291 -2.871232
2007-03-26 06:58:11 51°13.821 2°55.656 7.8815 2.657384 23.900576 -2.871232
2007-03-26 06:58:16 51°13.828 2°55.65 7.8816 2.671132 24.03589 -2.871232
2007-03-26 06:58:21 51°13.836 2°55.644 7.8722 2.671132 24.03589 -2.871232
2007-03-26 06:58:26 51°13.844 2°55.638 7.8704 2.679713 24.118811 -2.871232
2007-03-26 06:58:31 51°13.852 2°55.631 7.8575 2.692738 24.245102 -2.871232
2007-03-26 06:58:35 51°13.859 2°55.626 7.8559 2.699458 24.309653 -2.871232
2007-03-26 06:58:41 51°13.869 2°55.617 7.8633 2.696563 24.279658 -2.871232
2007-03-26 06:58:46 51°13.878 2°55.61 7.8632 2.696563 24.279658 -2.871232
2007-03-26 06:58:51 51°13.887 2°55.602 7.8701 2.689947 24.214155 -2.871232
2007-03-26 06:58:56 51°13.897 2°55.594 7.8638 2.670099 24.019749 -2.871232
2007-03-26 06:59:00 51°13.904 2°55.588 7.8688 2.643016 23.755973 -2.871232
2007-03-26 06:59:06 51°13.916 2°55.579 7.877 2.621826 23.551268 -2.871232
2007-03-26 06:59:11 51°13.926 2°55.571 7.8862 2.617381 23.507404 -2.871232
2007-03-26 06:59:15 51°13.934 2°55.565 7.8931 2.617381 23.507404 -2.871232
2007-03-26 06:59:20 51°13.944 2°55.557 7.8954 2.622756 23.56045 -2.871232
2007-03-26 06:59:26 51°13.956 2°55.548 7.9019 2.635263 23.683292 -2.871232
2007-03-26 06:59:31 51°13.967 2°55.54 7.9046 2.653249 23.860354 -2.871232
2007-03-26 06:59:35 51°13.975 2°55.533 7.9065 2.683434 24.155643 -2.871232
2007-03-26 06:59:40 51°13.986 2°55.526 7.9105 2.716309 24.476614 -2.871232
2007-03-26 06:59:46 51°13.998 2°55.516 7.9109 2.716309 24.476614 -2.871232
2007-03-26 06:59:51 51°14.008 2°55.508 7.9082 2.745154 24.757984 -2.871232
2007-03-26 06:59:56 51°14.019 2°55.5 7.9086 2.772243 25.022199 -2.871232
2007-03-26 07:00:00 51°14.028 2°55.494 7.9076 2.799127 25.285314 -2.871232
2007-03-26 07:00:06 51°14.04 2°55.485 7.9116 2.816085 25.450573 -2.871232
2007-03-26 07:00:11 51°14.051 2°55.478 7.9106 2.830459 25.590883 -2.871232
2007-03-26 07:00:16 51°14.063 2°55.469 7.9116 2.830459 25.590883 -2.871232
2007-03-26 07:00:21 51°14.074 2°55.461 7.9124 2.843178 25.716184 -2.871232
2007-03-26 07:00:26 51°14.086 2°55.453 7.9051 2.845247 25.73609 -2.871232
2007-03-26 07:00:31 51°14.098 2°55.444 7.9063 2.852796 25.81133 -2.871232
2007-03-26 07:00:36 51°14.111 2°55.435 7.9049 2.855278 25.835366 -2.871232
2007-03-26 07:00:41 51°14.124 2°55.426 7.9029 2.861483 25.896527 -2.871232
2007-03-26 07:00:46 51°14.136 2°55.416 7.9046 2.861483 25.896527 -2.871232
2007-03-26 07:00:51 51°14.149 2°55.405 7.9059 2.86655 25.947065 -2.871232
2007-03-26 07:00:56 51°14.163 2°55.394 7.9091 2.862724 25.908902 -2.871232
2007-03-26 07:01:02 51°14.178 2°55.379 7.9108 2.864275 25.92579 -2.871232
2007-03-26 07:01:07 51°14.191 2°55.365 7.9131 2.863137 25.915861 -2.871232
2007-03-26 07:01:12 51°14.203 2°55.35 7.9131 2.860138 25.886659 -2.871232
2007-03-26 07:01:17 51°14.216 2°55.335 7.9119 2.860138 25.886659 -2.871232
2007-03-26 07:01:23 51°14.23 2°55.315 7.9136 2.860345 25.88943 -2.871232
2007-03-26 07:01:27 51°14.239 2°55.301 7.9075 2.861793 25.903161 -2.871232
2007-03-26 07:01:33 51°14.253 2°55.279 7.908 2.86262 25.910704 -2.871232
2007-03-26 07:01:38 51°14.264 2°55.261 7.9073 2.861689 25.899297 -2.871232
2007-03-26 07:01:43 51°14.275 2°55.242 7.9097 2.860345 25.885891 -2.871232
2007-03-26 07:01:48 51°14.286 2°55.223 7.9118 2.855381 25.836397 -2.871232
2007-03-26 07:01:52 51°14.295 2°55.207 7.9149 2.855381 25.836397 -2.871232
2007-03-26 07:01:57 51°14.305 2°55.187 7.9163 2.852692 25.809594 -2.871232
2007-03-26 07:02:02 51°14.315 2°55.167 7.9152 2.850004 25.783498 -2.871232
2007-03-26 07:02:07 51°14.326 2°55.147 7.9138 2.850521 25.789357 -2.871232
2007-03-26 07:02:11 51°14.334 2°55.131 7.9136 2.854657 25.830593 -2.871232
2007-03-26 07:02:16 51°14.345 2°55.111 7.92 2.856208 25.845352 -2.871232
2007-03-26 07:02:21 51°14.356 2°55.092 7.9247 2.856208 25.845352 -2.871232
2007-03-26 07:02:26 51°14.368 2°55.073 7.924 2.856312 25.844263 -2.871232
2007-03-26 07:02:30 51°14.377 2°55.057 7.9239 2.855484 25.834603 -2.871232
2007-03-26 07:02:36 51°14.392 2°55.035 7.9206 2.853106 25.810895 -2.871232
2007-03-26 07:02:40 51°14.402 2°55.02 7.9236 2.860138 25.88029 -2.871232
2007-03-26 07:02:46 51°14.419 2°54.999 7.9337 2.860138 25.88029 -2.871232
2007-03-26 07:02:51 51°14.434 2°54.983 7.9178 2.870894 25.985421 -2.871232
2007-03-26 07:02:56 51°14.449 2°54.968 7.9503 2.892198 26.195168 -2.871232
2007-03-26 07:03:01 51°14.465 2°54.955 7.9405 2.919606 26.466803 -2.871232
2007-03-26 07:03:05 51°14.478 2°54.946 7.9213 2.943292 26.703691 -2.871232
2007-03-26 07:03:10 51°14.495 2°54.933 7.9024 2.963463 26.90489 -2.871232
2007-03-26 07:03:15 51°14.512 2°54.922 7.889 2.963463 26.90489 -2.871232
2007-03-26 07:03:21 51°14.532 2°54.908 7.8867 2.977944 27.04703 -2.871232
2007-03-26 07:03:26 51°14.55 2°54.897 7.8658 2.995323 27.220521 -2.871232
2007-03-26 07:03:31 51°14.567 2°54.886 7.8542 3.006806 27.329742 -2.871232
2007-03-26 07:03:35 51°14.581 2°54.878 7.8566 3.019116 27.454036 -2.871232
2007-03-26 07:03:41 51°14.602 2°54.866 7.8665 3.032979 27.603053 -2.871232
2007-03-26 07:03:46 51°14.621 2°54.86 7.8488 3.032979 27.603053 -2.871232
2007-03-26 07:03:51 51°14.639 2°54.855 7.8555 3.041152 27.697314 -2.871232
2007-03-26 07:03:55 51°14.654 2°54.852 7.8557 3.046222 27.757415 -2.871232
2007-03-26 07:04:00 51°14.673 2°54.851 7.8256 3.049429 27.802624 -2.871232
2007-03-26 07:04:06 51°14.695 2°54.848 7.8193 3.04943 27.810237 -2.871232
2007-03-26 07:04:11 51°14.714 2°54.846 7.8087 3.053568 27.854211 -2.871232
2007-03-26 07:04:15 51°14.729 2°54.844 7.7983 3.053568 27.854211 -2.871232
2007-03-26 07:04:20 51°14.748 2°54.842 7.7889 3.066087 27.984201 -2.871232
2007-03-26 07:04:26 51°14.771 2°54.838 7.7853 3.076744 28.093975 -2.871232
2007-03-26 07:04:31 51°14.79 2°54.834 7.7921 3.089574 28.231171 -2.871232
2007-03-26 07:04:36 51°14.808 2°54.829 7.7827 3.102715 28.37477 -2.871232
2007-03-26 07:04:41 51°14.827 2°54.825 7.7848 3.112441 28.483244 -2.871232
2007-03-26 07:04:46 51°14.846 2°54.819 7.7757 3.112441 28.483244 -2.871232
2007-03-26 07:04:51 51°14.864 2°54.814 7.7769 3.122582 28.596816 -2.871232
2007-03-26 07:04:56 51°14.883 2°54.808 7.7791 3.12879 28.668329 -2.871232
2007-03-26 07:05:01 51°14.901 2°54.802 7.7952 3.130964 28.695067 -2.871232
2007-03-26 07:05:06 51°14.92 2°54.796 7.7795 3.133654 28.726271 -2.871232
2007-03-26 07:05:10 51°14.935 2°54.792 7.7906 3.135931 28.752502 -2.871232
2007-03-26 07:05:16 51°14.957 2°54.785 7.7835 3.138828 28.785827 -2.871232
2007-03-26 07:05:21 51°14.976 2°54.779 7.7795 3.138828 28.785827 -2.871232
2007-03-26 07:05:26 51°14.995 2°54.773 7.7832 3.140691 28.806296 -2.871232
2007-03-26 07:05:30 51°15.01 2°54.769 7.7805 3.141208 28.810752 -2.871232
2007-03-26 07:05:35 51°15.029 2°54.763 7.7748 3.141726 28.813625 -2.871232
2007-03-26 07:05:41 51°15.051 2°54.756 7.7661 3.143174 28.829108 -2.871232
2007-03-26 07:05:46 51°15.07 2°54.75 7.7629 3.143174 28.829108 -2.871232
2007-03-26 07:05:51 51°15.088 2°54.745 7.7722 3.143485 28.832256 -2.871232
2007-03-26 07:05:55 51°15.103 2°54.74 7.7664 3.143381 28.831998 -2.871232
2007-03-26 07:06:00 51°15.122 2°54.735 7.7707 3.143795 28.836988 -2.871232
2007-03-26 07:06:06 51°15.144 2°54.728 7.7644 3.144623 28.847762 -2.871232
2007-03-26 07:06:11 51°15.163 2°54.722 7.7663 3.145865 28.863529 -2.871232
2007-03-26 07:06:15 51°15.178 2°54.717 7.7661 3.145865 28.863529 -2.871232
2007-03-26 07:06:20 51°15.197 2°54.711 7.7621 3.146589 28.874051 -2.871232
2007-03-26 07:06:26 51°15.219 2°54.704 7.7586 3.145968 28.866958 -2.871232
2007-03-26 07:06:31 51°15.238 2°54.697 7.7598 3.146589 28.874051 -2.871232
2007-03-26 07:06:36 51°15.256 2°54.689 7.769 3.147003 28.879044 -2.871232
2007-03-26 07:06:40 51°15.271 2°54.684 7.7632 3.147831 28.889826 -2.871232
2007-03-26 07:06:46 51°15.293 2°54.675 7.77 3.147831 28.889826 -2.871232
2007-03-26 07:06:51 51°15.312 2°54.668 7.7578 3.148762 28.900866 -2.871232
2007-03-26 07:06:56 51°15.33 2°54.661 7.7646 3.149901 28.915598 -2.871232
2007-03-26 07:07:01 51°15.348 2°54.654 7.7631 3.150832 28.925847 -2.871232
2007-03-26 07:07:06 51°15.367 2°54.647 7.7605 3.15135 28.929509 -2.871232
2007-03-26 07:07:11 51°15.385 2°54.641 7.7679 3.152281 28.937373 -2.871232
2007-03-26 07:07:16 51°15.404 2°54.634 7.7757 3.154144 28.956282 -2.871232
2007-03-26 07:07:21 51°15.422 2°54.628 7.7704 3.154144 28.956282 -2.871232
2007-03-26 07:07:26 51°15.441 2°54.621 7.7798 3.156524 28.98204 -2.871232
2007-03-26 07:07:30 51°15.456 2°54.616 7.7788 3.157869 28.996497 -2.871232
2007-03-26 07:07:35 51°15.474 2°54.61 7.7825 3.159214 29.009361 -2.871232
2007-03-26 07:07:41 51°15.496 2°54.602 7.7873 3.16056 29.022225 -2.871232
2007-03-26 07:07:46 51°15.515 2°54.596 7.7764 3.16056 29.022225 -2.871232
2007-03-26 07:07:51 51°15.533 2°54.59 7.7726 3.161491 29.028492 -2.871232
2007-03-26 07:07:55 51°15.548 2°54.585 7.7693 3.163354 29.045014 -2.871232
2007-03-26 07:08:01 51°15.57 2°54.577 7.7701 3.164492 29.054977 -2.871232
2007-03-26 07:08:06 51°15.589 2°54.571 7.7688 3.165009 29.057836 -2.871232
2007-03-26 07:08:11 51°15.607 2°54.565 7.7816 3.165009 29.055441 -2.871232
2007-03-26 07:08:15 51°15.622 2°54.561 7.7729 3.165009 29.055441 -2.871232
2007-03-26 07:08:20 51°15.641 2°54.555 7.7755 3.165837 29.064645 -2.871232
2007-03-26 07:08:26 51°15.663 2°54.548 7.7644 3.166562 29.073598 -2.871232
2007-03-26 07:08:31 51°15.682 2°54.542 7.7698 3.166458 29.074145 -2.871232
2007-03-26 07:08:36 51°15.701 2°54.537 7.7744 3.166769 29.078097 -2.871232
2007-03-26 07:08:39 51°15.712 2°54.533 7.7738 3.166872 29.078349 -2.871232
2007-03-26 07:08:46 51°15.738 2°54.525 7.7756 3.167596 29.086505 -2.871232
2007-03-26 07:08:51 51°15.757 2°54.52 7.7673 3.167596 29.086505 -2.871232
2007-03-26 07:08:56 51°15.776 2°54.514 7.7672 3.169252 29.104921 -2.871232
2007-03-26 07:09:00 51°15.791 2°54.51 7.7627 3.170805 29.12309 -2.871232
2007-03-26 07:09:06 51°15.813 2°54.503 7.765 3.170701 29.121238 -2.871232
2007-03-26 07:09:11 51°15.832 2°54.497 7.7623 3.171012 29.122791 -2.871232
2007-03-26 07:09:16 51°15.85 2°54.492 7.7692 3.171012 29.122791 -2.871232
2007-03-26 07:09:21 51°15.867 2°54.487 7.7624 3.171736 29.13015 -2.871232
2007-03-26 07:09:26 51°15.883 2°54.482 7.7612 3.172771 29.142265 -2.871232
2007-03-26 07:09:31 51°15.899 2°54.477 7.7711 3.173909 29.156234 -2.871232
2007-03-26 07:09:36 51°15.914 2°54.473 7.7699 3.174323 29.161241 -2.871232
2007-03-26 07:09:41 51°15.928 2°54.47 7.7722 3.174634 29.163595 -2.871232
2007-03-26 07:09:46 51°15.942 2°54.466 7.7806 3.174634 29.163595 -2.871232
2007-03-26 07:09:50 51°15.953 2°54.464 7.7822 3.175048 29.168603 -2.871232
2007-03-26 07:09:56 51°15.968 2°54.46 7.7852 3.176496 29.18493 -2.871232
2007-03-26 07:10:01 51°15.981 2°54.458 7.7872 3.178463 29.204112 -2.871232
2007-03-26 07:10:06 51°15.993 2°54.455 7.7873 3.180222 29.220387 -2.871232
2007-03-26 07:10:11 51°16.005 2°54.453 7.7901 3.182913 29.24613 -2.871232
2007-03-26 07:10:15 51°16.014 2°54.451 7.799 3.182913 29.24613 -2.871232
2007-03-26 07:10:21 51°16.027 2°54.448 7.7986 3.184465 29.259497 -2.871232
2007-03-26 07:10:26 51°16.038 2°54.446 7.8004 3.186224 29.274162 -2.871232
2007-03-26 07:10:31 51°16.048 2°54.444 7.8081 3.188087 29.290683 -2.871232
2007-03-26 07:10:35 51°16.056 2°54.442 7.8151 3.190157 29.309306 -2.871232
2007-03-26 07:10:40 51°16.066 2°54.44 7.8094 3.192227 29.327123 -2.871232
2007-03-26 07:10:46 51°16.077 2°54.437 7.8099 3.193262 29.334419 -2.871232
2007-03-26 07:10:51 51°16.086 2°54.435 7.8106 3.193262 29.334419 -2.871232
2007-03-26 07:10:56 51°16.095 2°54.433 7.8117 3.195228 29.35118 -2.871232
2007-03-26 07:11:00 51°16.102 2°54.431 7.8128 3.196677 29.362681 -2.871232
2007-03-26 07:11:06 51°16.111 2°54.429 7.8129 3.196987 29.360999 -2.871232
2007-03-26 07:11:11 51°16.119 2°54.427 7.8156 3.198436 29.374109 -2.871232
2007-03-26 07:11:16 51°16.127 2°54.425 7.8138 3.198436 29.374109 -2.871232
2007-03-26 07:11:20 51°16.133 2°54.424 7.8138 3.199264 29.380909 -2.871232
2007-03-26 07:11:26 51°16.142 2°54.422 7.8171 3.200299 29.390618 -2.871232
2007-03-26 07:11:31 51°16.149 2°54.421 7.8162 3.200816 29.39507 -2.871232
2007-03-26 07:11:36 51°16.156 2°54.419 7.8156 3.201334 29.399521 -2.871232
2007-03-26 07:11:41 51°16.162 2°54.417 7.8141 3.201644 29.401869 -2.871232
2007-03-26 07:11:46 51°16.168 2°54.414 7.814 3.201644 29.401869 -2.871232
2007-03-26 07:11:51 51°16.173 2°54.411 7.8155 3.202369 29.408423 -2.871232
2007-03-26 07:11:56 51°16.179 2°54.408 7.814 3.202886 29.412874 -2.871232
2007-03-26 07:12:01 51°16.183 2°54.404 7.8173 3.203197 29.415221 -2.871232
2007-03-26 07:12:06 51°16.188 2°54.401 7.8192 3.203818 29.421531 -2.871232
2007-03-26 07:12:10 51°16.191 2°54.397 7.8178 3.204335 29.427597 -2.871232
2007-03-26 07:12:15 51°16.195 2°54.393 7.8232 3.204335 29.427597 -2.871232
2007-03-26 07:12:21 51°16.199 2°54.388 7.8219 3.204749 29.432612 -2.871232
2007-03-26 07:12:26 51°16.203 2°54.384 7.8242 3.204956 29.434715 -2.871232
2007-03-26 07:12:31 51°16.206 2°54.379 7.823 3.203921 29.424198 -2.871232
2007-03-26 07:12:35 51°16.209 2°54.375 7.8246 3.204646 29.429944 -2.871232
2007-03-26 07:12:40 51°16.212 2°54.371 7.8235 3.205267 29.435447 -2.871232
2007-03-26 07:12:46 51°16.215 2°54.366 7.8229 3.205267 29.435447 -2.871232
2007-03-26 07:12:51 51°16.218 2°54.363 7.8284 3.205784 29.439089 -2.871232
2007-03-26 07:12:55 51°16.221 2°54.36 7.825 3.205991 29.439577 -2.871232
2007-03-26 07:13:00 51°16.223 2°54.357 7.8272 3.206302 29.442731 -2.871232
2007-03-26 07:13:06 51°16.226 2°54.354 7.8306 3.206509 29.444027 -2.871232
2007-03-26 07:13:11 51°16.228 2°54.352 7.8359 3.206819 29.446373 -2.871232
2007-03-26 07:13:15 51°16.23 2°54.35 7.8282 3.206923 29.447425 -2.871232
2007-03-26 07:13:20 51°16.231 2°54.349 7.8269 3.206923 29.447425 -2.871232
2007-03-26 07:13:26 51°16.232 2°54.349 7.8316 3.207026 29.447668 -2.871232
2007-03-26 07:13:31 51°16.233 2°54.349 7.8305 3.207026 29.44686 -2.871232
2007-03-26 07:13:35 51°16.233 2°54.349 7.8308 3.207129 29.446296 -2.871232
2007-03-26 07:13:41 51°16.234 2°54.349 7.8289 3.207129 29.443872 -2.871232
2007-03-26 07:13:46 51°16.235 2°54.349 7.8329 3.207129 29.443872 -2.871232
2007-03-26 07:13:51 51°16.235 2°54.349 7.83 3.207336 29.445167 -2.871232
2007-03-26 07:13:56 51°16.236 2°54.349 7.8282 3.207543 29.448078 -2.871232
2007-03-26 07:14:01 51°16.236 2°54.349 7.8321 3.20775 29.450181 -2.871232
2007-03-26 07:14:05 51°16.236 2°54.349 7.8304 3.207854 29.451232 -2.871232
2007-03-26 07:14:10 51°16.237 2°54.349 7.8313 3.207957 29.452284 -2.871232
2007-03-26 07:14:15 51°16.237 2°54.349 7.832 3.207957 29.452284 -2.871232
2007-03-26 07:14:21 51°16.238 2°54.349 7.8347 3.207854 29.451232 -2.871232
2007-03-26 07:14:26 51°16.238 2°54.349 7.832 3.207854 29.451232 -2.871232
2007-03-26 07:14:31 51°16.239 2°54.349 7.8308 3.207854 29.451232 -2.871232
2007-03-26 07:14:35 51°16.239 2°54.348 7.8302 3.20775 29.449373 -2.871232
2007-03-26 07:14:41 51°16.239 2°54.348 7.8327 3.207854 29.450424 -2.871232
2007-03-26 07:14:46 51°16.24 2°54.348 7.833 3.207854 29.449616 -2.871232
2007-03-26 07:14:51 51°16.24 2°54.348 7.8277 3.207854 29.449616 -2.871232
2007-03-26 07:14:55 51°16.241 2°54.348 7.8291 3.207957 29.449859 -2.871232
2007-03-26 07:15:00 51°16.241 2°54.348 7.8282 3.208164 29.453578 -2.871232
2007-03-26 07:15:06 51°16.242 2°54.348 7.8269 3.208164 29.453578 -2.871232
2007-03-26 07:15:11 51°16.242 2°54.348 7.8302 3.208268 29.453822 -2.871232
2007-03-26 07:15:15 51°16.242 2°54.348 7.8336 3.208268 29.453822 -2.871232
2007-03-26 07:15:20 51°16.243 2°54.348 7.8315 3.208164 29.45277 -2.871232
2007-03-26 07:15:26 51°16.243 2°54.348 7.8304 3.208268 29.455438 -2.871232
2007-03-26 07:15:31 51°16.243 2°54.348 7.83 3.208371 29.457298 -2.871232
2007-03-26 07:15:36 51°16.244 2°54.348 7.8288 3.208268 29.456246 -2.871232
2007-03-26 07:15:41 51°16.244 2°54.347 7.8287 3.208268 29.456246 -2.871232
2007-03-26 07:15:46 51°16.245 2°54.348 7.8304 3.208268 29.456246 -2.871232
2007-03-26 07:15:51 51°16.245 2°54.347 7.8329 3.208164 29.453578 -2.871232
2007-03-26 07:15:56 51°16.245 2°54.347 7.8316 3.208268 29.45463 -2.871232
2007-03-26 07:16:01 51°16.246 2°54.347 7.8341 3.208371 29.455681 -2.871232
2007-03-26 07:16:06 51°16.246 2°54.347 7.8367 3.208371 29.455681 -2.871232
2007-03-26 07:16:11 51°16.246 2°54.347 7.833 3.208475 29.457541 -2.871232
2007-03-26 07:16:16 51°16.247 2°54.347 7.8311 3.208475 29.457541 -2.871232
2007-03-26 07:16:21 51°16.247 2°54.347 7.8333 3.208475 29.457541 -2.871232
2007-03-26 07:16:26 51°16.248 2°54.347 7.8324 3.208371 29.455681 -2.871232
2007-03-26 07:16:31 51°16.248 2°54.347 7.8334 3.208475 29.455924 -2.871232
2007-03-26 07:16:35 51°16.249 2°54.346 7.8333 3.208475 29.455116 -2.871232
2007-03-26 07:16:41 51°16.249 2°54.346 7.834 3.208578 29.45536 -2.871232
2007-03-26 07:16:46 51°16.25 2°54.346 7.8303 3.208578 29.45536 -2.871232
2007-03-26 07:16:51 51°16.25 2°54.346 7.8354 3.208682 29.457219 -2.871232
2007-03-26 07:16:55 51°16.25 2°54.346 7.8335 3.208785 29.459079 -2.871232
2007-03-26 07:17:01 51°16.251 2°54.345 7.8333 3.208785 29.459079 -2.871232
2007-03-26 07:17:06 51°16.251 2°54.345 7.8337 3.208889 29.46013 -2.871232
2007-03-26 07:17:11 51°16.251 2°54.345 7.8341 3.208889 29.46013 -2.871232
2007-03-26 07:17:15 51°16.252 2°54.345 7.837 3.208889 29.46013 -2.871232
2007-03-26 07:17:20 51°16.252 2°54.345 7.8337 3.208889 29.46013 -2.871232
2007-03-26 07:17:26 51°16.253 2°54.345 7.8334 3.208889 29.46013 -2.871232
2007-03-26 07:17:31 51°16.253 2°54.344 7.8325 3.208889 29.46013 -2.871232
2007-03-26 07:17:35 51°16.254 2°54.344 7.8343 3.208889 29.46013 -2.871232
2007-03-26 07:17:40 51°16.254 2°54.344 7.8354 3.208889 29.459322 -2.871232
2007-03-26 07:17:46 51°16.254 2°54.344 7.834 3.208889 29.459322 -2.871232
2007-03-26 07:17:51 51°16.255 2°54.344 7.8347 3.208889 29.459322 -2.871232
2007-03-26 07:17:56 51°16.255 2°54.343 7.8323 3.208889 29.459322 -2.871232
2007-03-26 07:18:01 51°16.256 2°54.343 7.8318 3.208889 29.46013 -2.871232
2007-03-26 07:18:06 51°16.256 2°54.343 7.8344 3.208889 29.459322 -2.871232
2007-03-26 07:18:11 51°16.257 2°54.342 7.8329 3.208889 29.458514 -2.871232
2007-03-26 07:18:16 51°16.257 2°54.342 7.8382 3.208992 29.459565 -2.871232
2007-03-26 07:18:21 51°16.257 2°54.342 7.8346 3.208992 29.459565 -2.871232
2007-03-26 07:18:26 51°16.258 2°54.342 7.8323 3.208992 29.460373 -2.871232
2007-03-26 07:18:30 51°16.258 2°54.342 7.8335 3.209096 29.461425 -2.871232
2007-03-26 07:18:36 51°16.259 2°54.342 7.8333 3.209096 29.461425 -2.871232
2007-03-26 07:18:41 51°16.259 2°54.342 7.8334 3.209096 29.461425 -2.871232
2007-03-26 07:18:46 51°16.26 2°54.342 7.8339 3.209096 29.461425 -2.871232
2007-03-26 07:18:50 51°16.26 2°54.342 7.8354 3.208992 29.459565 -2.871232
2007-03-26 07:18:55 51°16.261 2°54.341 7.834 3.208992 29.459565 -2.871232
2007-03-26 07:19:01 51°16.261 2°54.341 7.8334 3.208992 29.460373 -2.871232
2007-03-26 07:19:06 51°16.262 2°54.341 7.8321 3.208992 29.460373 -2.871232
2007-03-26 07:19:11 51°16.262 2°54.341 7.8346 3.208992 29.461182 -2.871232
2007-03-26 07:19:15 51°16.262 2°54.341 7.8337 3.208992 29.461182 -2.871232
2007-03-26 07:19:21 51°16.263 2°54.34 7.835 3.208992 29.460373 -2.871232
2007-03-26 07:19:26 51°16.263 2°54.34 7.8313 3.208889 29.459322 -2.871232
2007-03-26 07:19:31 51°16.263 2°54.34 7.8334 3.208992 29.459565 -2.871232
2007-03-26 07:19:35 51°16.264 2°54.34 7.8325 3.208889 29.459322 -2.871232
2007-03-26 07:19:40 51°16.264 2°54.34 7.8332 3.208992 29.460373 -2.871232
2007-03-26 07:19:46 51°16.265 2°54.34 7.8351 3.208992 29.460373 -2.871232
2007-03-26 07:19:51 51°16.265 2°54.339 7.8315 3.208992 29.460373 -2.871232
2007-03-26 07:19:55 51°16.266 2°54.339 7.8311 3.208992 29.460373 -2.871232
2007-03-26 07:20:01 51°16.266 2°54.339 7.831 3.208889 29.46013 -2.871232
2007-03-26 07:20:06 51°16.266 2°54.339 7.8316 3.208889 29.46013 -2.871232
2007-03-26 07:20:11 51°16.267 2°54.339 7.8315 3.208889 29.46013 -2.871232
2007-03-26 07:20:16 51°16.267 2°54.339 7.8316 3.208889 29.46013 -2.871232
2007-03-26 07:20:21 51°16.268 2°54.338 7.8308 3.208889 29.46013 -2.871232
2007-03-26 07:20:25 51°16.268 2°54.338 7.8305 3.208889 29.460938 -2.871232
2007-03-26 07:20:31 51°16.269 2°54.338 7.8328 3.208889 29.460938 -2.871232
2007-03-26 07:20:36 51°16.269 2°54.338 7.8314 3.208785 29.459887 -2.871232
2007-03-26 07:20:41 51°16.269 2°54.337 7.8326 3.208785 29.459887 -2.871232
2007-03-26 07:20:46 51°16.27 2°54.337 7.8324 3.208785 29.459887 -2.871232
2007-03-26 07:20:50 51°16.271 2°54.337 7.8341 3.208785 29.460695 -2.871232
2007-03-26 07:20:56 51°16.271 2°54.337 7.8322 3.208889 29.461747 -2.871232
2007-03-26 07:21:01 51°16.271 2°54.337 7.8312 3.208889 29.460938 -2.871232
2007-03-26 07:21:06 51°16.272 2°54.337 7.8325 3.208785 29.460695 -2.871232
2007-03-26 07:21:11 51°16.272 2°54.337 7.8336 3.208785 29.459887 -2.871232
2007-03-26 07:21:15 51°16.273 2°54.337 7.8339 3.208785 29.459887 -2.871232
2007-03-26 07:21:21 51°16.273 2°54.337 7.8359 3.208785 29.459887 -2.871232
2007-03-26 07:21:26 51°16.274 2°54.337 7.8343 3.208785 29.459079 -2.871232
2007-03-26 07:21:31 51°16.274 2°54.336 7.836 3.208889 29.46013 -2.871232
2007-03-26 07:21:35 51°16.274 2°54.336 7.8337 3.208889 29.46013 -2.871232
2007-03-26 07:21:41 51°16.275 2°54.336 7.8347 3.208889 29.46013 -2.871232
2007-03-26 07:21:46 51°16.275 2°54.336 7.8356 3.208889 29.46013 -2.871232
2007-03-26 07:21:51 51°16.275 2°54.336 7.8346 3.208889 29.46013 -2.871232
2007-03-26 07:21:55 51°16.276 2°54.336 7.834 3.208992 29.460373 -2.871232
2007-03-26 07:21:59 51°16.276 2°54.336 7.8376 3.208992 29.460373 -2.871232
2007-03-26 07:22:06 51°16.277 2°54.335 7.8356 3.208992 29.460373 -2.871232
2007-03-26 07:22:11 51°16.277 2°54.335 7.8341 3.208992 29.460373 -2.871232
2007-03-26 07:22:15 51°16.277 2°54.335 7.8347 3.208992 29.460373 -2.871232
2007-03-26 07:22:20 51°16.278 2°54.335 7.832 3.208992 29.460373 -2.871232
2007-03-26 07:22:26 51°16.278 2°54.335 7.834 3.208992 29.460373 -2.871232
2007-03-26 07:22:31 51°16.278 2°54.334 7.8335 3.209096 29.460617 -2.871232
2007-03-26 07:22:36 51°16.279 2°54.334 7.8333 3.208992 29.460373 -2.871232
2007-03-26 07:22:41 51°16.279 2°54.334 7.8337 3.208992 29.460373 -2.871232
2007-03-26 07:22:46 51°16.279 2°54.334 7.833 3.208992 29.460373 -2.871232
2007-03-26 07:22:51 51°16.28 2°54.333 7.8342 3.208992 29.460373 -2.871232
2007-03-26 07:22:56 51°16.28 2°54.333 7.834 3.208992 29.461182 -2.871232
2007-03-26 07:23:01 51°16.281 2°54.333 7.8333 3.208889 29.46013 -2.871232
2007-03-26 07:23:06 51°16.281 2°54.333 7.8341 3.208889 29.46013 -2.871232
2007-03-26 07:23:10 51°16.281 2°54.333 7.8351 3.208992 29.461182 -2.871232
2007-03-26 07:23:16 51°16.281 2°54.333 7.8357 3.208992 29.461182 -2.871232
2007-03-26 07:23:21 51°16.282 2°54.333 7.837 3.208992 29.461182 -2.871232
2007-03-26 07:23:26 51°16.282 2°54.332 7.8333 3.208992 29.460373 -2.871232
2007-03-26 07:23:31 51°16.282 2°54.332 7.8333 3.208992 29.460373 -2.871232
2007-03-26 07:23:35 51°16.283 2°54.332 7.8347 3.208992 29.460373 -2.871232
2007-03-26 07:23:41 51°16.283 2°54.332 7.8377 3.208992 29.459565 -2.871232
2007-03-26 07:23:46 51°16.283 2°54.331 7.8365 3.209096 29.459808 -2.871232
2007-03-26 07:23:51 51°16.284 2°54.331 7.8346 3.209096 29.459808 -2.871232
2007-03-26 07:23:55 51°16.284 2°54.331 7.834 3.208992 29.459565 -2.871232
2007-03-26 07:23:59 51°16.285 2°54.33 7.8363 3.209096 29.461425 -2.871232
2007-03-26 07:24:06 51°16.286 2°54.329 7.8362 3.209096 29.460617 -2.871232
2007-03-26 07:24:11 51°16.288 2°54.327 7.8383 3.209096 29.459808 -2.871232
2007-03-26 07:24:15 51°16.289 2°54.326 7.8373 3.209096 29.459808 -2.871232
2007-03-26 07:24:20 51°16.292 2°54.324 7.8362 3.209096 29.459808 -2.871232
2007-03-26 07:24:26 51°16.296 2°54.32 7.8376 3.209096 29.460617 -2.871232
2007-03-26 07:24:31 51°16.3 2°54.317 7.8351 3.209096 29.460617 -2.871232
2007-03-26 07:24:35 51°16.304 2°54.314 7.8351 3.209096 29.459808 -2.871232
2007-03-26 07:24:41 51°16.31 2°54.308 7.8348 3.209096 29.459808 -2.871232
2007-03-26 07:24:46 51°16.316 2°54.301 7.8361 3.209096 29.459808 -2.871232
2007-03-26 07:24:51 51°16.323 2°54.293 7.8363 3.209096 29.459808 -2.871232
2007-03-26 07:24:56 51°16.33 2°54.283 7.8389 3.209096 29.459808 -2.871232
2007-03-26 07:25:01 51°16.338 2°54.271 7.8413 3.209096 29.459808 -2.871232
2007-03-26 07:25:05 51°16.344 2°54.26 7.8383 3.209199 29.46086 -2.871232
2007-03-26 07:25:10 51°16.352 2°54.245 7.8394 3.209096 29.460617 -2.871232
2007-03-26 07:25:16 51°16.361 2°54.225 7.8366 3.209096 29.460617 -2.871232
2007-03-26 07:25:21 51°16.369 2°54.207 7.8383 3.209096 29.460617 -2.871232
2007-03-26 07:25:26 51°16.378 2°54.187 7.8396 3.209096 29.460617 -2.871232
2007-03-26 07:25:30 51°16.385 2°54.171 7.8418 3.209096 29.459808 -2.871232
2007-03-26 07:25:35 51°16.393 2°54.15 7.8396 3.209096 29.459 -2.871232
2007-03-26 07:25:41 51°16.404 2°54.124 7.8419 3.209096 29.458192 -2.871232
2007-03-26 07:25:46 51°16.413 2°54.102 7.8407 3.209096 29.458192 -2.871232
2007-03-26 07:25:50 51°16.42 2°54.083 7.8414 3.209096 29.458192 -2.871232
2007-03-26 07:25:55 51°16.429 2°54.06 7.8443 3.208992 29.457141 -2.871232
2007-03-26 07:26:01 51°16.441 2°54.031 7.8431 3.208992 29.456333 -2.871232
2007-03-26 07:26:06 51°16.451 2°54.007 7.8384 3.208992 29.455525 -2.871232
2007-03-26 07:26:11 51°16.46 2°53.983 7.8365 3.208992 29.454717 -2.871232
2007-03-26 07:26:15 51°16.468 2°53.964 7.8357 3.208992 29.454717 -2.871232
2007-03-26 07:26:21 51°16.479 2°53.934 7.8369 3.208889 29.453666 -2.871232
2007-03-26 07:26:26 51°16.489 2°53.909 7.8383 3.208889 29.452858 -2.871232
2007-03-26 07:26:31 51°16.498 2°53.884 7.8395 3.208682 29.450755 -2.871232
2007-03-26 07:26:36 51°16.508 2°53.859 7.8393 3.208682 29.449948 -2.871232
2007-03-26 07:26:39 51°16.514 2°53.844 7.8391 3.208371 29.449217 -2.871232
2007-03-26 07:26:46 51°16.528 2°53.809 7.8382 3.208268 29.448974 -2.871232
2007-03-26 07:26:51 51°16.538 2°53.783 7.8395 3.208268 29.448974 -2.871232
2007-03-26 07:26:56 51°16.548 2°53.758 7.8414 3.208164 29.448731 -2.871232
2007-03-26 07:27:01 51°16.558 2°53.733 7.8463 3.208061 29.446872 -2.871232
2007-03-26 07:27:06 51°16.569 2°53.708 7.8481 3.208061 29.446872 -2.871232
2007-03-26 07:27:11 51°16.579 2°53.682 7.8492 3.208061 29.446064 -2.871232
2007-03-26 07:27:16 51°16.589 2°53.657 7.8472 3.208164 29.447923 -2.871232
2007-03-26 07:27:21 51°16.599 2°53.632 7.849 3.208164 29.447923 -2.871232
2007-03-26 07:27:26 51°16.61 2°53.607 7.8495 3.208268 29.448166 -2.871232
2007-03-26 07:27:31 51°16.619 2°53.581 7.8484 3.206405 29.427631 -2.871232
2007-03-26 07:27:36 51°16.63 2°53.556 7.8474 3.207129 29.432567 -2.871232
2007-03-26 07:27:41 51°16.64 2°53.531 7.8445 3.208268 29.442513 -2.871232
2007-03-26 07:27:46 51°16.649 2°53.506 7.8448 3.208268 29.442513 -2.871232
2007-03-26 07:27:51 51°16.66 2°53.481 7.8465 3.208785 29.446961 -2.871232
2007-03-26 07:27:56 51°16.67 2°53.455 7.843 3.208889 29.447204 -2.871232
2007-03-26 07:28:01 51°16.679 2°53.429 7.8448 3.208889 29.447204 -2.871232
2007-03-26 07:28:06 51°16.69 2°53.405 7.8445 3.208164 29.439847 -2.871232
2007-03-26 07:28:10 51°16.698 2°53.384 7.8408 3.208268 29.442513 -2.871232
2007-03-26 07:28:15 51°16.708 2°53.358 7.8393 3.208268 29.442513 -2.871232
2007-03-26 07:28:21 51°16.72 2°53.329 7.8389 3.208889 29.449627 -2.871232
2007-03-26 07:28:26 51°16.731 2°53.303 7.8328 3.208578 29.446474 -2.871232
2007-03-26 07:28:31 51°16.741 2°53.278 7.831 3.208268 29.444128 -2.871232
2007-03-26 07:28:35 51°16.749 2°53.258 7.8277 3.207957 29.440167 -2.871232
2007-03-26 07:28:40 51°16.76 2°53.234 7.8265 3.207957 29.441782 -2.871232
2007-03-26 07:28:46 51°16.772 2°53.203 7.8295 3.207854 29.441539 -2.871232
2007-03-26 07:28:51 51°16.784 2°53.179 7.8251 3.207854 29.441539 -2.871232
2007-03-26 07:28:56 51°16.795 2°53.155 7.8319 3.207854 29.443154 -2.871232
2007-03-26 07:29:00 51°16.804 2°53.136 7.8179 3.20775 29.445333 -2.871232
2007-03-26 07:29:06 51°16.819 2°53.109 7.8196 3.207647 29.447513 -2.871232
2007-03-26 07:29:11 51°16.831 2°53.085 7.8165 3.20744 29.446218 -2.871232
2007-03-26 07:29:16 51°16.843 2°53.062 7.8108 3.20744 29.446218 -2.871232
2007-03-26 07:29:20 51°16.853 2°53.044 7.8111 3.206405 29.43732 -2.871232
2007-03-26 07:29:26 51°16.868 2°53.017 7.8112 3.20537 29.426806 -2.871232
2007-03-26 07:29:31 51°16.88 2°52.995 7.8122 3.204232 29.415242 -2.871232
2007-03-26 07:29:36 51°16.892 2°52.972 7.8143 3.204439 29.421381 -2.871232
2007-03-26 07:29:41 51°16.905 2°52.949 7.8141 3.204439 29.424611 -2.871232
2007-03-26 07:29:46 51°16.917 2°52.926 7.8145 3.204439 29.424611 -2.871232
2007-03-26 07:29:50 51°16.926 2°52.907 7.8188 3.204439 29.427033 -2.871232
2007-03-26 07:29:56 51°16.941 2°52.879 7.8208 3.204439 29.429457 -2.871232
2007-03-26 07:30:01 51°16.953 2°52.856 7.8233 3.204335 29.429213 -2.871232
2007-03-26 07:30:06 51°16.966 2°52.833 7.8188 3.204335 29.430021 -2.871232
2007-03-26 07:30:11 51°16.979 2°52.809 7.8215 3.204335 29.430021 -2.871232
2007-03-26 07:30:15 51°16.989 2°52.791 7.8232 3.204335 29.430021 -2.871232
2007-03-26 07:30:21 51°17.004 2°52.764 7.8249 3.204439 29.430264 -2.871232
2007-03-26 07:30:26 51°17.018 2°52.741 7.8272 3.204439 29.429457 -2.871232
2007-03-26 07:30:31 51°17.031 2°52.719 7.8335 3.204646 29.429944 -2.871232
2007-03-26 07:30:36 51°17.044 2°52.696 7.8369 3.204956 29.431484 -2.871232
2007-03-26 07:30:40 51°17.054 2°52.678 7.8344 3.205474 29.435934 -2.871232
2007-03-26 07:30:46 51°17.07 2°52.652 7.8364 3.189846 29.275589 -2.871232
2007-03-26 07:30:51 51°17.083 2°52.63 7.8318 3.189846 29.275589 -2.871232
2007-03-26 07:30:55 51°17.093 2°52.612 7.8275 3.207336 29.450823 -2.871232
2007-03-26 07:30:59 51°17.104 2°52.594 7.8255 3.208578 29.461826 -2.871232
2007-03-26 07:31:06 51°17.123 2°52.564 7.8287 3.209303 29.465144 -2.871232
2007-03-26 07:31:11 51°17.137 2°52.543 7.8333 3.210234 29.472991 -2.871232
2007-03-26 07:31:16 51°17.152 2°52.523 7.8267 3.210234 29.472991 -2.871232
2007-03-26 07:31:21 51°17.166 2°52.503 7.8249 3.210752 29.477439 -2.871232
2007-03-26 07:31:26 51°17.181 2°52.483 7.8261 3.211373 29.485366 -2.871232
2007-03-26 07:31:31 51°17.196 2°52.464 7.826 3.211476 29.488036 -2.871232
2007-03-26 07:31:36 51°17.211 2°52.445 7.8259 3.211476 29.488845 -2.871232
2007-03-26 07:31:41 51°17.226 2°52.425 7.8278 3.210855 29.481726 -2.871232
2007-03-26 07:31:46 51°17.241 2°52.406 7.8293 3.210855 29.481726 -2.871232
2007-03-26 07:31:51 51°17.256 2°52.386 7.8302 3.21158 29.489896 -2.871232
2007-03-26 07:31:56 51°17.271 2°52.367 7.8339 3.212511 29.50098 -2.871232
2007-03-26 07:32:01 51°17.286 2°52.348 7.8359 3.213132 29.508101 -2.871232
2007-03-26 07:32:06 51°17.301 2°52.329 7.8387 3.21365 29.51336 -2.871232
2007-03-26 07:32:10 51°17.313 2°52.313 7.842 3.214167 29.518619 -2.871232
2007-03-26 07:32:16 51°17.331 2°52.29 7.846 3.214685 29.523069 -2.871232
2007-03-26 07:32:21 51°17.346 2°52.271 7.8488 3.214685 29.523069 -2.871232
2007-03-26 07:32:26 51°17.361 2°52.251 7.8532 3.215306 29.527759 -2.871232
2007-03-26 07:32:31 51°17.377 2°52.232 7.8547 3.216134 29.533743 -2.871232
2007-03-26 07:32:36 51°17.392 2°52.213 7.8582 3.217479 29.545796 -2.871232
2007-03-26 07:32:41 51°17.407 2°52.194 7.862 3.218721 29.555175 -2.871232
2007-03-26 07:32:46 51°17.422 2°52.174 7.8641 3.22048 29.569811 -2.871232
2007-03-26 07:32:51 51°17.437 2°52.155 7.8684 3.22048 29.569811 -2.871232
2007-03-26 07:32:55 51°17.449 2°52.139 7.8698 3.222447 29.58736 -2.871232
2007-03-26 07:32:59 51°17.461 2°52.123 7.8761 3.224206 29.601992 -2.871232
2007-03-26 07:33:06 51°17.482 2°52.096 7.8766 3.225966 29.616623 -2.871232
2007-03-26 07:33:11 51°17.497 2°52.077 7.8821 3.227208 29.625995 -2.871232
2007-03-26 07:33:16 51°17.512 2°52.058 7.8847 3.227208 29.625995 -2.871232
2007-03-26 07:33:20 51°17.524 2°52.042 7.8891 3.228553 29.636416 -2.871232
2007-03-26 07:33:26 51°17.542 2°52.019 7.8896 3.229692 29.645545 -2.871232
2007-03-26 07:33:31 51°17.557 2°52 7.892 3.230934 29.654913 -2.871232
2007-03-26 07:33:36 51°17.572 2°51.981 7.8943 3.232383 29.665569 -2.871232
2007-03-26 07:33:41 51°17.587 2°51.962 7.8988 3.234453 29.683344 -2.871232
2007-03-26 07:33:46 51°17.602 2°51.943 7.8982 3.236626 29.701355 -2.871232
2007-03-26 07:33:51 51°17.617 2°51.924 7.8991 3.236626 29.701355 -2.871232
2007-03-26 07:33:56 51°17.632 2°51.905 7.893 3.238386 29.715973 -2.871232
2007-03-26 07:34:01 51°17.647 2°51.886 7.8917 3.239938 29.728486 -2.871232
2007-03-26 07:34:06 51°17.662 2°51.867 7.8904 3.241284 29.739709 -2.871232
2007-03-26 07:34:11 51°17.677 2°51.848 7.8889 3.241905 29.743573 -2.871232
2007-03-26 07:34:16 51°17.692 2°51.828 7.8976 3.242526 29.748251 -2.871232
2007-03-26 07:34:21 51°17.708 2°51.809 7.8968 3.242526 29.748251 -2.871232
2007-03-26 07:34:26 51°17.722 2°51.79 7.9022 3.243043 29.753507 -2.871232
2007-03-26 07:34:31 51°17.737 2°51.771 7.9062 3.243768 29.761681 -2.871232
2007-03-26 07:34:36 51°17.752 2°51.752 7.905 3.243975 29.765414 -2.871232
2007-03-26 07:34:41 51°17.768 2°51.732 7.906 3.244803 29.774641 -2.871232
2007-03-26 07:34:46 51°17.783 2°51.714 7.9068 3.244803 29.774641 -2.871232
2007-03-26 07:34:50 51°17.794 2°51.698 7.9067 3.245631 29.781421 -2.871232
2007-03-26 07:34:55 51°17.809 2°51.679 7.9072 3.247701 29.800002 -2.871232
2007-03-26 07:35:01 51°17.828 2°51.656 7.9068 3.249978 29.820684 -2.871232
2007-03-26 07:35:06 51°17.843 2°51.638 7.908 3.252876 29.846858 -2.871232
2007-03-26 07:35:11 51°17.858 2°51.618 7.9084 3.255464 29.872329 -2.871232
2007-03-26 07:35:15 51°17.87 2°51.603 7.9091 3.255464 29.872329 -2.871232
2007-03-26 07:35:21 51°17.889 2°51.58 7.9165 3.256809 29.884363 -2.871232
2007-03-26 07:35:26 51°17.904 2°51.561 7.9189 3.257741 29.893828 -2.871232
2007-03-26 07:35:31 51°17.918 2°51.542 7.9206 3.258879 29.904578 -2.871232
2007-03-26 07:35:36 51°17.933 2°51.522 7.9263 3.260018 29.916146 -2.871232
2007-03-26 07:35:40 51°17.945 2°51.507 7.9314 3.261674 29.932155 -2.871232
2007-03-26 07:35:46 51°17.963 2°51.483 7.9368 3.263641 29.95132 -2.871232
2007-03-26 07:35:51 51°17.978 2°51.465 7.9394 3.263641 29.95132 -2.871232
2007-03-26 07:35:56 51°17.993 2°51.445 7.9419 3.26509 29.962765 -2.871232
2007-03-26 07:36:01 51°18.008 2°51.426 7.9458 3.267056 29.979468 -2.871232
2007-03-26 07:36:06 51°18.023 2°51.407 7.9432 3.269644 30.00248 -2.871232
2007-03-26 07:36:11 51°18.038 2°51.387 7.945 3.272542 30.027823 -2.871232
2007-03-26 07:36:16 51°18.053 2°51.368 7.9465 3.275337 30.051289 -2.871232
2007-03-26 07:36:21 51°18.067 2°51.348 7.9453 3.275337 30.051289 -2.871232
2007-03-26 07:36:26 51°18.082 2°51.328 7.9434 3.277821 30.072419 -2.871232
2007-03-26 07:36:31 51°18.096 2°51.308 7.9431 3.279788 30.089111 -2.871232
2007-03-26 07:36:36 51°18.11 2°51.289 7.9452 3.281651 30.106396 -2.871232
2007-03-26 07:36:41 51°18.124 2°51.271 7.9438 3.282893 30.11737 -2.871232
2007-03-26 07:36:46 51°18.137 2°51.255 7.9422 3.282893 30.11737 -2.871232
2007-03-26 07:36:51 51°18.149 2°51.239 7.944 3.283514 30.122857 -2.871232
2007-03-26 07:36:56 51°18.161 2°51.225 7.9436 3.284032 30.127292 -2.871232
2007-03-26 07:37:01 51°18.173 2°51.211 7.9443 3.284342 30.131271 -2.871232
2007-03-26 07:37:06 51°18.184 2°51.198 7.945 3.284032 30.127292 -2.871232
2007-03-26 07:37:11 51°18.195 2°51.185 7.9387 3.283618 30.121437 -2.871232
2007-03-26 07:37:15 51°18.203 2°51.176 7.9423 3.283618 30.121437 -2.871232
2007-03-26 07:37:21 51°18.215 2°51.162 7.9418 3.282893 30.114899 -2.871232
2007-03-26 07:37:26 51°18.225 2°51.152 7.9383 3.282272 30.107765 -2.871232
2007-03-26 07:37:31 51°18.235 2°51.141 7.9363 3.281962 30.104611 -2.871232
2007-03-26 07:37:35 51°18.242 2°51.132 7.9354 3.281548 30.100404 -2.871232
2007-03-26 07:37:41 51°18.254 2°51.121 7.9318 3.281858 30.105206 -2.871232
2007-03-26 07:37:46 51°18.264 2°51.111 7.93 3.281444 30.101822 -2.871232
2007-03-26 07:37:51 51°18.273 2°51.102 7.932 3.281444 30.101822 -2.871232
2007-03-26 07:37:56 51°18.283 2°51.093 7.9301 3.280927 30.097387 -2.871232
2007-03-26 07:38:00 51°18.29 2°51.086 7.9271 3.280409 30.093775 -2.871232
2007-03-26 07:38:06 51°18.301 2°51.076 7.9244 3.279374 30.084904 -2.871232
2007-03-26 07:38:11 51°18.309 2°51.068 7.9281 3.278546 30.078136 -2.871232
2007-03-26 07:38:16 51°18.318 2°51.061 7.9264 3.278546 30.078136 -2.871232
2007-03-26 07:38:20 51°18.324 2°51.055 7.9257 3.277614 30.071139 -2.871232
2007-03-26 07:38:26 51°18.334 2°51.048 7.924 3.276476 30.061214 -2.871232
2007-03-26 07:38:31 51°18.343 2°51.043 7.9221 3.275026 30.047312 -2.871232
2007-03-26 07:38:36 51°18.351 2°51.039 7.9191 3.273784 30.036335 -2.871232
2007-03-26 07:38:41 51°18.359 2°51.035 7.9192 3.272749 30.02664 -2.871232
2007-03-26 07:38:46 51°18.367 2°51.032 7.9191 3.272749 30.02664 -2.871232
2007-03-26 07:38:51 51°18.375 2°51.03 7.9182 3.271611 30.015893 -2.871232
2007-03-26 07:38:56 51°18.383 2°51.029 7.9161 3.27099 30.010404 -2.871232
2007-03-26 07:39:01 51°18.39 2°51.028 7.9177 3.270162 30.002812 -2.871232
2007-03-26 07:39:06 51°18.396 2°51.027 7.9174 3.269541 29.998144 -2.871232
2007-03-26 07:39:11 51°18.403 2°51.026 7.9151 3.268919 29.991834 -2.871232
2007-03-26 07:39:16 51°18.41 2°51.026 7.9143 3.268402 29.987396 -2.871232
2007-03-26 07:39:21 51°18.416 2°51.025 7.9161 3.268402 29.987396 -2.871232
2007-03-26 07:39:26 51°18.422 2°51.025 7.9142 3.268091 29.984241 -2.871232
2007-03-26 07:39:31 51°18.428 2°51.025 7.9167 3.267781 29.982727 -2.871232
2007-03-26 07:39:35 51°18.433 2°51.024 7.9173 3.26747 29.980393 -2.871232
2007-03-26 07:39:41 51°18.44 2°51.024 7.9161 3.267263 29.97993 -2.871232
2007-03-26 07:39:46 51°18.446 2°51.023 7.9147 3.267263 29.980751 -2.871232
2007-03-26 07:39:51 51°18.451 2°51.023 7.913 3.267263 29.980751 -2.871232
2007-03-26 07:39:55 51°18.455 2°51.023 7.9194 3.267367 29.982623 -2.871232
2007-03-26 07:40:01 51°18.462 2°51.023 7.9143 3.267367 29.983444 -2.871232
2007-03-26 07:40:06 51°18.466 2°51.022 7.9141 3.26747 29.983675 -2.871232
2007-03-26 07:40:11 51°18.471 2°51.022 7.9124 3.267574 29.983906 -2.871232
2007-03-26 07:40:15 51°18.474 2°51.022 7.9136 3.267574 29.983906 -2.871232
2007-03-26 07:40:21 51°18.478 2°51.022 7.9146 3.267781 29.986831 -2.871232
2007-03-26 07:40:26 51°18.482 2°51.022 7.9118 3.267884 29.988703 -2.871232
2007-03-26 07:40:31 51°18.485 2°51.022 7.9126 3.267988 29.989755 -2.871232
2007-03-26 07:40:35 51°18.487 2°51.022 7.9098 3.268091 29.991628 -2.871232
2007-03-26 07:40:41 51°18.489 2°51.022 7.9101 3.268091 29.992449 -2.871232
2007-03-26 07:40:46 51°18.491 2°51.022 7.9132 3.268091 29.992449 -2.871232
2007-03-26 07:40:51 51°18.493 2°51.022 7.9096 3.268091 29.991628 -2.871232
2007-03-26 07:40:55 51°18.494 2°51.022 7.9095 3.268195 29.99268 -2.871232
2007-03-26 07:41:01 51°18.495 2°51.021 7.9149 3.268299 29.993732 -2.871232
2007-03-26 07:41:06 51°18.496 2°51.021 7.9121 3.268299 29.994553 -2.871232
2007-03-26 07:41:11 51°18.496 2°51.02 7.9136 3.268299 29.995374 -2.871232
2007-03-26 07:41:15 51°18.497 2°51.019 7.913 3.268299 29.996195 -2.871232
2007-03-26 07:41:21 51°18.497 2°51.018 7.9141 3.268299 29.996195 -2.871232
2007-03-26 07:41:26 51°18.497 2°51.017 7.9159 3.268299 29.996195 -2.871232
2007-03-26 07:41:31 51°18.498 2°51.016 7.9141 3.268299 29.996195 -2.871232
2007-03-26 07:41:35 51°18.498 2°51.015 7.9131 3.268299 29.995374 -2.871232
2007-03-26 07:41:41 51°18.498 2°51.015 7.9119 3.268299 29.995374 -2.871232
2007-03-26 07:41:46 51°18.499 2°51.014 7.9124 3.268299 29.995374 -2.871232
2007-03-26 07:41:51 51°18.499 2°51.013 7.9156 3.268299 29.995374 -2.871232
2007-03-26 07:41:55 51°18.499 2°51.013 7.9137 3.268299 29.994553 -2.871232
2007-03-26 07:42:01 51°18.499 2°51.012 7.9115 3.268299 29.994553 -2.871232
2007-03-26 07:42:06 51°18.499 2°51.011 7.9136 3.268299 29.995374 -2.871232
2007-03-26 07:42:11 51°18.5 2°51.011 7.916 3.268402 29.996426 -2.871232
2007-03-26 07:42:15 51°18.5 2°51.01 7.915 3.268402 29.996426 -2.871232
2007-03-26 07:42:19 51°18.5 2°51.01 7.9177 3.268402 29.996426 -2.871232
2007-03-26 07:42:26 51°18.5 2°51.009 7.913 3.268402 29.994784 -2.871232
2007-03-26 07:42:31 51°18.501 2°51.008 7.9136 3.268402 29.995605 -2.871232
2007-03-26 07:42:35 51°18.501 2°51.008 7.9086 3.268506 29.996657 -2.871232
2007-03-26 07:42:41 51°18.501 2°51.007 7.9117 3.268506 29.995836 -2.871232
2007-03-26 07:42:46 51°18.501 2°51.007 7.9127 3.268506 29.995836 -2.871232
2007-03-26 07:42:51 51°18.501 2°51.006 7.9121 3.268506 29.995836 -2.871232
2007-03-26 07:42:55 51°18.502 2°51.006 7.9108 3.268609 29.996888 -2.871232
2007-03-26 07:43:01 51°18.502 2°51.006 7.9101 3.268609 29.997709 -2.871232
2007-03-26 07:43:06 51°18.502 2°51.005 7.9111 3.268713 29.998761 -2.871232
2007-03-26 07:43:11 51°18.502 2°51.005 7.9099 3.268609 29.997709 -2.871232
2007-03-26 07:43:16 51°18.502 2°51.004 7.9095 3.268713 29.998761 -2.871232
2007-03-26 07:43:21 51°18.502 2°51.004 7.9099 3.268713 29.998761 -2.871232
2007-03-26 07:43:26 51°18.502 2°51.004 7.909 3.268713 29.998761 -2.871232
2007-03-26 07:43:31 51°18.502 2°51.003 7.9111 3.268713 29.998761 -2.871232
2007-03-26 07:43:35 51°18.502 2°51.004 7.9113 3.268713 29.998761 -2.871232
2007-03-26 07:43:41 51°18.502 2°51.003 7.9112 3.268609 29.999351 -2.871232
2007-03-26 07:43:46 51°18.503 2°51.003 7.912 3.268609 29.999351 -2.871232
2007-03-26 07:43:50 51°18.503 2°51.003 7.9113 3.268713 29.999582 -2.871232
2007-03-26 07:43:55 51°18.503 2°51.002 7.9122 3.268713 30.000403 -2.871232
2007-03-26 07:44:01 51°18.503 2°51.002 7.9144 3.268816 30.001455 -2.871232
2007-03-26 07:44:06 51°18.503 2°51.002 7.9107 3.26892 30.002507 -2.871232
2007-03-26 07:44:11 51°18.503 2°51.002 7.91 3.26892 30.002507 -2.871232
2007-03-26 07:44:15 51°18.503 2°51.001 7.9146 3.26892 30.002507 -2.871232
2007-03-26 07:44:21 51°18.504 2°51.001 7.9171 3.26892 30.002507 -2.871232
2007-03-26 07:44:26 51°18.504 2°51 7.9126 3.26892 30.002507 -2.871232
2007-03-26 07:44:31 51°18.504 2°51 7.913 3.269023 30.002738 -2.871232
2007-03-26 07:44:36 51°18.504 2°51 7.9143 3.26923 30.004021 -2.871232
2007-03-26 07:44:40 51°18.504 2°51 7.9161 3.269437 30.006125 -2.871232
2007-03-26 07:44:46 51°18.505 2°50.999 7.9158 3.269437 30.006125 -2.871232
2007-03-26 07:44:51 51°18.505 2°50.999 7.9126 3.269437 30.006125 -2.871232
2007-03-26 07:44:56 51°18.505 2°50.999 7.9125 3.269541 30.007177 -2.871232
2007-03-26 07:45:01 51°18.505 2°50.998 7.9126 3.269541 30.007177 -2.871232
2007-03-26 07:45:06 51°18.506 2°50.998 7.9144 3.269644 30.008229 -2.871232
2007-03-26 07:45:11 51°18.506 2°50.997 7.9107 3.269748 30.008459 -2.871232
2007-03-26 07:45:16 51°18.506 2°50.997 7.9128 3.269748 30.008459 -2.871232
2007-03-26 07:45:21 51°18.507 2°50.997 7.9123 3.269748 30.008459 -2.871232
2007-03-26 07:45:26 51°18.507 2°50.996 7.9101 3.269644 30.008229 -2.871232
2007-03-26 07:45:31 51°18.507 2°50.996 7.9115 3.269748 30.009281 -2.871232
2007-03-26 07:45:36 51°18.508 2°50.995 7.9096 3.269748 30.009281 -2.871232
2007-03-26 07:45:41 51°18.508 2°50.995 7.9122 3.269748 30.009281 -2.871232
2007-03-26 07:45:46 51°18.508 2°50.994 7.9118 3.269748 30.009281 -2.871232
2007-03-26 07:45:50 51°18.509 2°50.994 7.9129 3.269644 30.008229 -2.871232
2007-03-26 07:45:56 51°18.509 2°50.993 7.9125 3.269644 30.008229 -2.871232
2007-03-26 07:46:01 51°18.509 2°50.992 7.9123 3.269644 30.009872 -2.871232
2007-03-26 07:46:06 51°18.509 2°50.992 7.913 3.269541 30.00882 -2.871232
2007-03-26 07:46:11 51°18.51 2°50.991 7.9131 3.269541 30.007998 -2.871232
2007-03-26 07:46:16 51°18.51 2°50.99 7.9129 3.269541 30.007998 -2.871232
2007-03-26 07:46:21 51°18.51 2°50.99 7.9147 3.269541 30.007998 -2.871232
2007-03-26 07:46:26 51°18.51 2°50.989 7.9144 3.269437 30.006946 -2.871232
2007-03-26 07:46:31 51°18.511 2°50.988 7.9161 3.269541 30.007998 -2.871232
2007-03-26 07:46:36 51°18.511 2°50.987 7.9152 3.269541 30.007998 -2.871232
2007-03-26 07:46:41 51°18.512 2°50.987 7.9146 3.269437 30.006946 -2.871232
2007-03-26 07:46:46 51°18.512 2°50.986 7.9127 3.269437 30.006946 -2.871232
2007-03-26 07:46:51 51°18.512 2°50.985 7.9161 3.269437 30.006946 -2.871232
2007-03-26 07:46:56 51°18.513 2°50.984 7.9156 3.269541 30.007177 -2.871232
2007-03-26 07:47:00 51°18.513 2°50.984 7.9147 3.269541 30.006355 -2.871232
2007-03-26 07:47:06 51°18.513 2°50.983 7.9149 3.269541 30.005534 -2.871232
2007-03-26 07:47:11 51°18.514 2°50.982 7.9152 3.269541 30.006355 -2.871232
2007-03-26 07:47:16 51°18.514 2°50.981 7.9175 3.269541 30.006355 -2.871232
2007-03-26 07:47:21 51°18.514 2°50.98 7.9218 3.269644 30.007407 -2.871232
2007-03-26 07:47:26 51°18.515 2°50.979 7.9187 3.269644 30.006586 -2.871232
2007-03-26 07:47:31 51°18.515 2°50.978 7.9173 3.269644 30.006586 -2.871232
2007-03-26 07:47:36 51°18.515 2°50.977 7.9198 3.269644 30.006586 -2.871232
2007-03-26 07:47:41 51°18.516 2°50.976 7.916 3.269748 30.007638 -2.871232
2007-03-26 07:47:46 51°18.516 2°50.975 7.9197 3.269748 30.007638 -2.871232
2007-03-26 07:47:51 51°18.516 2°50.974 7.9167 3.269748 30.006816 -2.871232
2007-03-26 07:47:56 51°18.517 2°50.973 7.9154 3.269748 30.005174 -2.871232
2007-03-26 07:48:01 51°18.517 2°50.972 7.9181 3.269851 30.006226 -2.871232
2007-03-26 07:48:06 51°18.518 2°50.971 7.9203 3.269955 30.006456 -2.871232
2007-03-26 07:48:11 51°18.518 2°50.97 7.918 3.269955 30.006456 -2.871232
2007-03-26 07:48:16 51°18.519 2°50.969 7.9187 3.269955 30.007278 -2.871232
2007-03-26 07:48:21 51°18.519 2°50.968 7.9171 3.269955 30.007278 -2.871232
2007-03-26 07:48:26 51°18.519 2°50.967 7.9193 3.269955 30.008099 -2.871232
2007-03-26 07:48:31 51°18.52 2°50.966 7.9175 3.269851 30.007868 -2.871232
2007-03-26 07:48:35 51°18.52 2°50.965 7.9179 3.269955 30.007278 -2.871232
2007-03-26 07:48:41 51°18.521 2°50.964 7.919 3.269955 30.007278 -2.871232
2007-03-26 07:48:46 51°18.522 2°50.964 7.9177 3.269955 30.007278 -2.871232
2007-03-26 07:48:51 51°18.522 2°50.963 7.9187 3.269955 30.007278 -2.871232
2007-03-26 07:48:55 51°18.523 2°50.962 7.9203 3.269955 30.007278 -2.871232
2007-03-26 07:49:00 51°18.523 2°50.961 7.9188 3.270058 30.008329 -2.871232
2007-03-26 07:49:06 51°18.524 2°50.96 7.9209 3.270058 30.008329 -2.871232
2007-03-26 07:49:11 51°18.524 2°50.959 7.9167 3.270058 30.008329 -2.871232
2007-03-26 07:49:16 51°18.525 2°50.959 7.9203 3.269955 30.008099 -2.871232
2007-03-26 07:49:20 51°18.525 2°50.958 7.9194 3.269955 30.008099 -2.871232
2007-03-26 07:49:26 51°18.526 2°50.957 7.9212 3.269955 30.007278 -2.871232
2007-03-26 07:49:31 51°18.527 2°50.956 7.9197 3.269955 30.007278 -2.871232
2007-03-26 07:49:36 51°18.527 2°50.955 7.9253 3.270058 30.007508 -2.871232
2007-03-26 07:49:41 51°18.528 2°50.954 7.9241 3.270058 30.008329 -2.871232
2007-03-26 07:49:46 51°18.528 2°50.953 7.9197 3.270058 30.008329 -2.871232
2007-03-26 07:49:51 51°18.528 2°50.952 7.9212 3.270058 30.007508 -2.871232
2007-03-26 07:49:56 51°18.529 2°50.951 7.9195 3.270058 30.007508 -2.871232
2007-03-26 07:50:01 51°18.53 2°50.95 7.9164 3.270058 30.006687 -2.871232
2007-03-26 07:50:05 51°18.53 2°50.949 7.9209 3.270162 30.006917 -2.871232
2007-03-26 07:50:11 51°18.531 2°50.948 7.9179 3.270162 30.006096 -2.871232
2007-03-26 07:50:16 51°18.531 2°50.947 7.9204 3.270162 30.006917 -2.871232
2007-03-26 07:50:21 51°18.532 2°50.946 7.9219 3.270162 30.006917 -2.871232
2007-03-26 07:50:26 51°18.532 2°50.945 7.9215 3.270162 30.006917 -2.871232
2007-03-26 07:50:31 51°18.533 2°50.944 7.9223 3.270265 30.008791 -2.871232
2007-03-26 07:50:36 51°18.533 2°50.943 7.9227 3.270162 30.00856 -2.871232
2007-03-26 07:50:41 51°18.534 2°50.942 7.9221 3.270162 30.00856 -2.871232
2007-03-26 07:50:46 51°18.534 2°50.941 7.9213 3.270162 30.00856 -2.871232
2007-03-26 07:50:51 51°18.535 2°50.94 7.9262 3.270162 30.00856 -2.871232
2007-03-26 07:50:55 51°18.535 2°50.939 7.9225 3.270162 30.006917 -2.871232
2007-03-26 07:51:01 51°18.536 2°50.938 7.9215 3.270265 30.007969 -2.871232
2007-03-26 07:51:06 51°18.536 2°50.937 7.921 3.270265 30.007148 -2.871232
2007-03-26 07:51:11 51°18.537 2°50.936 7.9218 3.270265 30.007148 -2.871232
2007-03-26 07:51:15 51°18.537 2°50.935 7.9249 3.270265 30.007148 -2.871232
2007-03-26 07:51:19 51°18.537 2°50.934 7.9241 3.270369 30.0082 -2.871232
2007-03-26 07:51:25 51°18.538 2°50.933 7.9259 3.270369 30.006557 -2.871232
2007-03-26 07:51:31 51°18.539 2°50.932 7.9233 3.270369 30.007379 -2.871232
2007-03-26 07:51:35 51°18.539 2°50.931 7.9233 3.270472 30.00843 -2.871232
2007-03-26 07:51:41 51°18.539 2°50.93 7.9237 3.270472 30.00843 -2.871232
2007-03-26 07:51:46 51°18.54 2°50.929 7.9231 3.270472 30.007609 -2.871232
2007-03-26 07:51:51 51°18.54 2°50.928 7.9219 3.270472 30.007609 -2.871232
2007-03-26 07:51:55 51°18.541 2°50.927 7.9253 3.270472 30.007609 -2.871232
2007-03-26 07:52:01 51°18.541 2°50.926 7.9254 3.270472 30.007609 -2.871232
2007-03-26 07:52:06 51°18.542 2°50.925 7.9249 3.270576 30.00784 -2.871232
2007-03-26 07:52:10 51°18.542 2°50.925 7.9238 3.270472 30.007609 -2.871232
2007-03-26 07:52:15 51°18.543 2°50.924 7.927 3.270472 30.00843 -2.871232
2007-03-26 07:52:21 51°18.543 2°50.923 7.9261 3.270472 30.00843 -2.871232
2007-03-26 07:52:26 51°18.543 2°50.922 7.9256 3.270576 30.008661 -2.871232
2007-03-26 07:52:30 51°18.543 2°50.921 7.9262 3.270576 30.008661 -2.871232
2007-03-26 07:52:35 51°18.544 2°50.92 7.9268 3.270576 30.00784 -2.871232
2007-03-26 07:52:41 51°18.544 2°50.919 7.9277 3.270576 30.00784 -2.871232
2007-03-26 07:52:46 51°18.545 2°50.918 7.9249 3.270576 30.00784 -2.871232
2007-03-26 07:52:51 51°18.545 2°50.916 7.924 3.270679 30.00807 -2.871232
2007-03-26 07:52:55 51°18.546 2°50.915 7.9236 3.270679 30.00807 -2.871232
2007-03-26 07:53:01 51°18.548 2°50.912 7.9236 3.270783 30.009943 -2.871232
2007-03-26 07:53:06 51°18.55 2°50.909 7.925 3.270783 30.009122 -2.871232
2007-03-26 07:53:11 51°18.552 2°50.907 7.9246 3.270783 30.009122 -2.871232
2007-03-26 07:53:15 51°18.553 2°50.904 7.9258 3.270783 30.009122 -2.871232
2007-03-26 07:53:21 51°18.555 2°50.901 7.9258 3.270886 30.010174 -2.871232
2007-03-26 07:53:26 51°18.557 2°50.898 7.9283 3.270886 30.010174 -2.871232
2007-03-26 07:53:31 51°18.559 2°50.895 7.9248 3.27099 30.011225 -2.871232
2007-03-26 07:53:36 51°18.562 2°50.889 7.9265 3.270886 30.010995 -2.871232
2007-03-26 07:53:41 51°18.567 2°50.883 7.9299 3.270886 30.010995 -2.871232
2007-03-26 07:53:46 51°18.572 2°50.875 7.9301 3.270886 30.010995 -2.871232
2007-03-26 07:53:50 51°18.577 2°50.87 7.9377 3.270886 30.010995 -2.871232
2007-03-26 07:53:55 51°18.585 2°50.863 7.9473 3.27099 30.012047 -2.871232
2007-03-26 07:54:01 51°18.595 2°50.856 7.9446 3.27099 30.012047 -2.871232
2007-03-26 07:54:06 51°18.605 2°50.851 7.9385 3.271093 30.012277 -2.871232
2007-03-26 07:54:11 51°18.616 2°50.849 7.9348 3.2713 30.011917 -2.871232
2007-03-26 07:54:16 51°18.627 2°50.847 7.9342 3.2713 30.011917 -2.871232
2007-03-26 07:54:21 51°18.639 2°50.848 7.9325 3.271404 30.011326 -2.871232
2007-03-26 07:54:26 51°18.651 2°50.85 7.9314 3.271611 30.008503 -2.871232
2007-03-26 07:54:31 51°18.662 2°50.853 7.9357 3.272128 30.009655 -2.871232
2007-03-26 07:54:36 51°18.674 2°50.859 7.9357 3.272646 30.014091 -2.871232
2007-03-26 07:54:41 51°18.686 2°50.866 7.9352 3.273267 30.02122 -2.871232
2007-03-26 07:54:46 51°18.698 2°50.875 7.935 3.273267 30.02122 -2.871232
2007-03-26 07:54:51 51°18.709 2°50.886 7.9287 3.273784 30.028119 -2.871232
2007-03-26 07:54:56 51°18.72 2°50.897 7.9276 3.274095 30.032095 -2.871232
2007-03-26 07:55:01 51°18.732 2°50.908 7.9296 3.274198 30.033968 -2.871232
2007-03-26 07:55:06 51°18.745 2°50.921 7.928 3.274302 30.034198 -2.871232
2007-03-26 07:55:11 51°18.759 2°50.935 7.9278 3.274612 30.037352 -2.871232
2007-03-26 07:55:16 51°18.774 2°50.949 7.9288 3.274923 30.041329 -2.871232
2007-03-26 07:55:21 51°18.789 2°50.964 7.9272 3.274923 30.041329 -2.871232
2007-03-26 07:55:26 51°18.804 2°50.978 7.93 3.275648 30.051156 -2.871232
2007-03-26 07:55:31 51°18.82 2°50.993 7.9302 3.275958 30.055956 -2.871232
2007-03-26 07:55:35 51°18.833 2°51.005 7.931 3.276165 30.058881 -2.871232
2007-03-26 07:55:41 51°18.852 2°51.024 7.9291 3.276372 30.061807 -2.871232
2007-03-26 07:55:46 51°18.868 2°51.04 7.9308 3.276372 30.061807 -2.871232
2007-03-26 07:55:51 51°18.884 2°51.056 7.9318 3.276372 30.061807 -2.871232
2007-03-26 07:55:55 51°18.897 2°51.069 7.931 3.276579 30.063911 -2.871232
2007-03-26 07:56:00 51°18.913 2°51.086 7.9314 3.276683 30.06414 -2.871232
2007-03-26 07:56:06 51°18.932 2°51.107 7.9337 3.276579 30.062266 -2.871232
2007-03-26 07:56:11 51°18.948 2°51.124 7.9366 3.276786 30.06437 -2.871232
2007-03-26 07:56:16 51°18.964 2°51.141 7.9348 3.276786 30.06437 -2.871232
2007-03-26 07:56:21 51°18.979 2°51.16 7.9371 3.27689 30.065421 -2.871232
2007-03-26 07:56:26 51°18.994 2°51.178 7.9361 3.276993 30.065651 -2.871232
2007-03-26 07:56:31 51°19.009 2°51.197 7.9352 3.2772 30.066932 -2.871232
2007-03-26 07:56:36 51°19.024 2°51.216 7.9326 3.277304 30.067983 -2.871232
2007-03-26 07:56:41 51°19.039 2°51.236 7.936 3.2772 30.065287 -2.871232
2007-03-26 07:56:46 51°19.053 2°51.256 7.9283 3.2772 30.065287 -2.871232
2007-03-26 07:56:51 51°19.067 2°51.276 7.9319 3.277097 30.063412 -2.871232
2007-03-26 07:56:56 51°19.081 2°51.298 7.9315 3.27689 30.060487 -2.871232
2007-03-26 07:57:01 51°19.095 2°51.319 7.9336 3.276579 30.058154 -2.871232
2007-03-26 07:57:06 51°19.109 2°51.34 7.9276 3.276372 30.056051 -2.871232
2007-03-26 07:57:11 51°19.122 2°51.362 7.9259 3.276165 30.053948 -2.871232
2007-03-26 07:57:16 51°19.136 2°51.383 7.9251 3.275958 30.052667 -2.871232
2007-03-26 07:57:21 51°19.149 2°51.405 7.9215 3.275958 30.052667 -2.871232
2007-03-26 07:57:26 51°19.163 2°51.427 7.9222 3.275544 30.050104 -2.871232
2007-03-26 07:57:31 51°19.176 2°51.449 7.9228 3.27513 30.04672 -2.871232
2007-03-26 07:57:36 51°19.189 2°51.47 7.9217 3.274819 30.044387 -2.871232
2007-03-26 07:57:41 51°19.202 2°51.492 7.9252 3.274612 30.043927 -2.871232
2007-03-26 07:57:46 51°19.215 2°51.515 7.9243 3.274612 30.043927 -2.871232
2007-03-26 07:57:51 51°19.228 2°51.537 7.9275 3.273991 30.039261 -2.871232
2007-03-26 07:57:55 51°19.239 2°51.555 7.9228 3.273474 30.035646 -2.871232
2007-03-26 07:58:01 51°19.253 2°51.583 7.923 3.27306 30.03226 -2.871232
2007-03-26 07:58:06 51°19.266 2°51.606 7.9225 3.272439 30.026771 -2.871232
2007-03-26 07:58:11 51°19.278 2°51.63 7.921 3.272128 30.023616 -2.871232
2007-03-26 07:58:15 51°19.287 2°51.649 7.9192 3.272128 30.023616 -2.871232
2007-03-26 07:58:20 51°19.299 2°51.673 7.9203 3.271818 30.019639 -2.871232
2007-03-26 07:58:26 51°19.311 2°51.703 7.9193 3.271404 30.014611 -2.871232
2007-03-26 07:58:31 51°19.322 2°51.729 7.9196 3.271197 30.013329 -2.871232
2007-03-26 07:58:36 51°19.33 2°51.756 7.9178 3.270886 30.010174 -2.871232
2007-03-26 07:58:41 51°19.339 2°51.783 7.9191 3.270576 30.00784 -2.871232
2007-03-26 07:58:46 51°19.346 2°51.81 7.9178 3.270265 30.005506 -2.871232
2007-03-26 07:58:51 51°19.353 2°51.838 7.9146 3.270265 30.005506 -2.871232
2007-03-26 07:58:56 51°19.359 2°51.867 7.9183 3.269955 30.003172 -2.871232
2007-03-26 07:59:01 51°19.365 2°51.895 7.9157 3.269748 30.001068 -2.871232
2007-03-26 07:59:06 51°19.37 2°51.924 7.9156 3.269644 30.000837 -2.871232
2007-03-26 07:59:11 51°19.375 2°51.952 7.9128 3.269541 30.000607 -2.871232
2007-03-26 07:59:16 51°19.38 2°51.981 7.9129 3.26923 29.997451 -2.871232
2007-03-26 07:59:21 51°19.386 2°52.01 7.9132 3.26923 29.997451 -2.871232
2007-03-26 07:59:26 51°19.391 2°52.039 7.913 3.268609 29.992783 -2.871232
2007-03-26 07:59:31 51°19.396 2°52.068 7.9126 3.267781 29.985189 -2.871232
2007-03-26 07:59:36 51°19.4 2°52.097 7.9144 3.267056 29.978647 -2.871232
2007-03-26 07:59:41 51°19.406 2°52.125 7.9147 3.266125 29.970822 -2.871232
2007-03-26 07:59:46 51°19.41 2°52.154 7.9115 3.265504 29.965332 -2.871232
2007-03-26 07:59:51 51°19.416 2°52.182 7.9106 3.265504 29.965332 -2.871232
2007-03-26 07:59:56 51°19.42 2°52.211 7.9092 3.264779 29.95797 -2.871232
2007-03-26 08:00:00 51°19.425 2°52.234 7.9076 3.264055 29.951428 -2.871232
2007-03-26 08:00:05 51°19.43 2°52.263 7.9071 3.263537 29.946169 -2.871232
2007-03-26 08:00:11 51°19.436 2°52.297 7.9083 3.262813 29.939627 -2.871232
2007-03-26 08:00:15 51°19.44 2°52.32 7.9078 3.262813 29.939627 -2.871232
2007-03-26 08:00:21 51°19.446 2°52.354 7.9074 3.262088 29.933084 -2.871232
2007-03-26 08:00:26 51°19.451 2°52.383 7.9055 3.261363 29.927361 -2.871232
2007-03-26 08:00:31 51°19.456 2°52.411 7.908 3.260846 29.922922 -2.871232
2007-03-26 08:00:35 51°19.46 2°52.434 7.9067 3.260535 29.920586 -2.871232
2007-03-26 08:00:39 51°19.464 2°52.457 7.9071 3.260225 29.917431 -2.871232
2007-03-26 08:00:46 51°19.471 2°52.497 7.9051 3.260018 29.915327 -2.871232
2007-03-26 08:00:51 51°19.477 2°52.525 7.9084 3.260018 29.915327 -2.871232
2007-03-26 08:00:56 51°19.482 2°52.554 7.9054 3.259707 29.912991 -2.871232
2007-03-26 08:00:59 51°19.485 2°52.571 7.9032 3.259397 29.910655 -2.871232
2007-03-26 08:01:06 51°19.492 2°52.611 7.9028 3.259293 29.909603 -2.871232
2007-03-26 08:01:11 51°19.498 2°52.639 7.904 3.259086 29.9075 -2.871232
2007-03-26 08:01:16 51°19.503 2°52.668 7.9016 3.259086 29.908319 -2.871232
2007-03-26 08:01:20 51°19.508 2°52.691 7.9021 3.259086 29.908319 -2.871232
2007-03-26 08:01:26 51°19.514 2°52.725 7.8982 3.25919 29.908552 -2.871232
2007-03-26 08:01:31 51°19.52 2°52.753 7.899 3.259086 29.908319 -2.871232
2007-03-26 08:01:36 51°19.524 2°52.782 7.8961 3.258983 29.908905 -2.871232
2007-03-26 08:01:41 51°19.531 2°52.81 7.899 3.258983 29.909724 -2.871232
2007-03-26 08:01:46 51°19.536 2°52.839 7.898 3.258983 29.909724 -2.871232
2007-03-26 08:01:50 51°19.54 2°52.862 7.8949 3.258983 29.909724 -2.871232
2007-03-26 08:01:56 51°19.547 2°52.896 7.8933 3.258983 29.911362 -2.871232
2007-03-26 08:02:01 51°19.552 2°52.925 7.8902 3.258983 29.912181 -2.871232
2007-03-26 08:02:05 51°19.557 2°52.948 7.8918 3.258983 29.913 -2.871232
2007-03-26 08:02:10 51°19.562 2°52.977 7.89 3.259086 29.914872 -2.871232
2007-03-26 08:02:16 51°19.568 2°53.011 7.8947 3.259086 29.915691 -2.871232
2007-03-26 08:02:21 51°19.574 2°53.039 7.8936 3.259086 29.915691 -2.871232
2007-03-26 08:02:26 51°19.579 2°53.068 7.8925 3.259086 29.91651 -2.871232
2007-03-26 08:02:31 51°19.585 2°53.097 7.8904 3.259086 29.918149 -2.871232
2007-03-26 08:02:35 51°19.589 2°53.119 7.89 3.259087 29.920608 -2.871232
2007-03-26 08:02:41 51°19.596 2°53.154 7.8937 3.259294 29.923532 -2.871232
2007-03-26 08:02:46 51°19.602 2°53.182 7.8932 3.259501 29.925636 -2.871232
2007-03-26 08:02:51 51°19.607 2°53.211 7.8931 3.259501 29.925636 -2.871232
2007-03-26 08:02:55 51°19.612 2°53.233 7.8946 3.259811 29.927973 -2.871232
2007-03-26 08:02:59 51°19.616 2°53.256 7.8908 3.260018 29.930077 -2.871232
2007-03-26 08:03:06 51°19.624 2°53.296 7.8858 3.260225 29.933002 -2.871232
2007-03-26 08:03:11 51°19.63 2°53.324 7.8894 3.260432 29.934286 -2.871232
2007-03-26 08:03:15 51°19.634 2°53.347 7.8902 3.260743 29.937443 -2.871232
2007-03-26 08:03:20 51°19.64 2°53.376 7.8874 3.260743 29.937443 -2.871232
2007-03-26 08:03:26 51°19.646 2°53.41 7.885 3.26095 29.938728 -2.871232
2007-03-26 08:03:31 51°19.652 2°53.438 7.8874 3.26126 29.942705 -2.871232
2007-03-26 08:03:36 51°19.658 2°53.466 7.8864 3.261467 29.94727 -2.871232
2007-03-26 08:03:40 51°19.662 2°53.489 7.8846 3.261571 29.948323 -2.871232
2007-03-26 08:03:46 51°19.669 2°53.523 7.8825 3.261571 29.948323 -2.871232
2007-03-26 08:03:51 51°19.674 2°53.552 7.8834 3.261674 29.949375 -2.871232
2007-03-26 08:03:56 51°19.68 2°53.58 7.882 3.261985 29.953353 -2.871232
2007-03-26 08:04:01 51°19.685 2°53.609 7.8849 3.262192 29.957099 -2.871232
2007-03-26 08:04:06 51°19.691 2°53.637 7.8858 3.262295 29.958152 -2.871232
2007-03-26 08:04:11 51°19.696 2°53.666 7.8827 3.262399 29.960025 -2.871232
2007-03-26 08:04:16 51°19.701 2°53.694 7.8811 3.262399 29.960846 -2.871232
2007-03-26 08:04:21 51°19.707 2°53.723 7.884 3.262399 29.960846 -2.871232
2007-03-26 08:04:26 51°19.712 2°53.751 7.8875 3.262502 29.962719 -2.871232
2007-03-26 08:04:31 51°19.718 2°53.779 7.8817 3.262399 29.962488 -2.871232
2007-03-26 08:04:35 51°19.722 2°53.802 7.881 3.262399 29.961667 -2.871232
2007-03-26 08:04:41 51°19.728 2°53.836 7.8841 3.262502 29.96354 -2.871232
2007-03-26 08:04:46 51°19.734 2°53.865 7.8808 3.262606 29.965414 -2.871232
2007-03-26 08:04:51 51°19.739 2°53.893 7.8797 3.262606 29.965414 -2.871232
2007-03-26 08:04:55 51°19.744 2°53.916 7.8797 3.262813 29.966698 -2.871232
2007-03-26 08:05:01 51°19.75 2°53.95 7.8805 3.26302 29.967982 -2.871232
2007-03-26 08:05:06 51°19.756 2°53.979 7.8827 3.263227 29.970909 -2.871232
2007-03-26 08:05:11 51°19.762 2°54.007 7.8831 3.263641 29.97512 -2.871232
2007-03-26 08:05:15 51°19.766 2°54.03 7.8833 3.263641 29.97512 -2.871232
2007-03-26 08:05:19 51°19.771 2°54.053 7.8814 3.263848 29.978046 -2.871232
2007-03-26 08:05:26 51°19.779 2°54.093 7.8806 3.264055 29.980974 -2.871232
2007-03-26 08:05:31 51°19.784 2°54.121 7.8815 3.264055 29.981795 -2.871232
2007-03-26 08:05:36 51°19.789 2°54.15 7.8797 3.263952 29.979921 -2.871232
2007-03-26 08:05:39 51°19.793 2°54.167 7.8815 3.263951 29.979099 -2.871232
2007-03-26 08:05:46 51°19.801 2°54.207 7.8804 3.263951 29.979099 -2.871232
2007-03-26 08:05:51 51°19.806 2°54.235 7.878 3.263951 29.978278 -2.871232
2007-03-26 08:05:56 51°19.812 2°54.264 7.8804 3.263848 29.978046 -2.871232
2007-03-26 08:06:00 51°19.816 2°54.287 7.8776 3.263848 29.978046 -2.871232
2007-03-26 08:06:06 51°19.823 2°54.321 7.8766 3.263744 29.977815 -2.871232
2007-03-26 08:06:11 51°19.829 2°54.35 7.8753 3.263641 29.976762 -2.871232
2007-03-26 08:06:16 51°19.834 2°54.378 7.8693 3.263641 29.977584 -2.871232
2007-03-26 08:06:21 51°19.84 2°54.407 7.8712 3.263641 29.977584 -2.871232
2007-03-26 08:06:26 51°19.845 2°54.436 7.8668 3.263745 29.979458 -2.871232
2007-03-26 08:06:31 51°19.851 2°54.464 7.8697 3.263848 29.980511 -2.871232
2007-03-26 08:06:36 51°19.856 2°54.493 7.8675 3.263848 29.980511 -2.871232
2007-03-26 08:06:41 51°19.862 2°54.522 7.8646 3.263848 29.981333 -2.871232
2007-03-26 08:06:46 51°19.868 2°54.551 7.8629 3.263641 29.981692 -2.871232
2007-03-26 08:06:51 51°19.874 2°54.579 7.8645 3.263641 29.981692 -2.871232
2007-03-26 08:06:55 51°19.878 2°54.602 7.8649 3.263538 29.983104 -2.871232
2007-03-26 08:07:01 51°19.885 2°54.636 7.8639 3.263331 29.983464 -2.871232
2007-03-26 08:07:06 51°19.891 2°54.665 7.8678 3.263331 29.984286 -2.871232
2007-03-26 08:07:11 51°19.896 2°54.693 7.8646 3.263331 29.985107 -2.871232
2007-03-26 08:07:15 51°19.901 2°54.716 7.8683 3.263331 29.985107 -2.871232
2007-03-26 08:07:21 51°19.907 2°54.751 7.8666 3.263434 29.988627 -2.871232
2007-03-26 08:07:26 51°19.913 2°54.779 7.8672 3.263538 29.98968 -2.871232
2007-03-26 08:07:31 51°19.918 2°54.807 7.8676 3.263641 29.990733 -2.871232
2007-03-26 08:07:35 51°19.923 2°54.83 7.8689 3.263952 29.993071 -2.871232
2007-03-26 08:07:39 51°19.927 2°54.853 7.8679 3.264262 29.996231 -2.871232
2007-03-26 08:07:46 51°19.935 2°54.893 7.8691 3.264573 29.998568 -2.871232
2007-03-26 08:07:51 51°19.941 2°54.921 7.8686 3.264573 29.998568 -2.871232
2007-03-26 08:07:56 51°19.947 2°54.949 7.8709 3.26478 30.000675 -2.871232
2007-03-26 08:08:01 51°19.953 2°54.978 7.8735 3.264987 30.001959 -2.871232
2007-03-26 08:08:06 51°19.959 2°55.006 7.8735 3.264987 30.002781 -2.871232
2007-03-26 08:08:11 51°19.965 2°55.035 7.8744 3.26509 30.003012 -2.871232
2007-03-26 08:08:16 51°19.97 2°55.063 7.8717 3.26509 30.003012 -2.871232
2007-03-26 08:08:21 51°19.976 2°55.092 7.8726 3.26509 30.003012 -2.871232
2007-03-26 08:08:26 51°19.981 2°55.12 7.8729 3.264987 30.001136 -2.871232
2007-03-26 08:08:31 51°19.986 2°55.148 7.8723 3.264883 29.999261 -2.871232
2007-03-26 08:08:36 51°19.992 2°55.176 7.8758 3.26478 29.996563 -2.871232
2007-03-26 08:08:41 51°19.997 2°55.205 7.8727 3.264676 29.994688 -2.871232
2007-03-26 08:08:46 51°20.003 2°55.234 7.8704 3.264366 29.992351 -2.871232
2007-03-26 08:08:51 51°20.008 2°55.262 7.8723 3.264366 29.992351 -2.871232
2007-03-26 08:08:56 51°20.014 2°55.291 7.8723 3.264159 29.990244 -2.871232
2007-03-26 08:09:01 51°20.019 2°55.32 7.8685 3.263952 29.987316 -2.871232
2007-03-26 08:09:06 51°20.025 2°55.348 7.8726 3.263848 29.985441 -2.871232
2007-03-26 08:09:11 51°20.031 2°55.377 7.8726 3.263952 29.985672 -2.871232
2007-03-26 08:09:15 51°20.036 2°55.399 7.8785 3.263952 29.985672 -2.871232
2007-03-26 08:09:21 51°20.042 2°55.434 7.8752 3.264159 29.9886 -2.871232
2007-03-26 08:09:26 51°20.048 2°55.462 7.873 3.264469 29.991759 -2.871232
2007-03-26 08:09:31 51°20.053 2°55.49 7.8723 3.264987 29.997847 -2.871232
2007-03-26 08:09:35 51°20.058 2°55.513 7.8719 3.265504 30.003935 -2.871232
2007-03-26 08:09:39 51°20.063 2°55.535 7.8694 3.266125 30.009431 -2.871232
2007-03-26 08:09:46 51°20.07 2°55.575 7.8715 3.266643 30.013874 -2.871232
2007-03-26 08:09:51 51°20.076 2°55.603 7.8726 3.266643 30.013874 -2.871232
2007-03-26 08:09:55 51°20.08 2°55.626 7.8686 3.267264 30.01937 -2.871232
2007-03-26 08:09:59 51°20.085 2°55.649 7.8708 3.267988 30.026743 -2.871232
2007-03-26 08:10:06 51°20.093 2°55.689 7.8698 3.26861 30.033885 -2.871232
2007-03-26 08:10:11 51°20.099 2°55.717 7.87 3.269024 30.038921 -2.871232
2007-03-26 08:10:16 51°20.105 2°55.746 7.8704 3.269334 30.042081 -2.871232
2007-03-26 08:10:21 51°20.11 2°55.774 7.869 3.269334 30.042081 -2.871232
2007-03-26 08:10:26 51°20.116 2°55.803 7.8672 3.269541 30.045011 -2.871232
2007-03-26 08:10:31 51°20.122 2°55.832 7.869 3.269645 30.046065 -2.871232
2007-03-26 08:10:36 51°20.128 2°55.86 7.8697 3.269748 30.047118 -2.871232
2007-03-26 08:10:41 51°20.133 2°55.889 7.866 3.269541 30.045835 -2.871232
2007-03-26 08:10:46 51°20.139 2°55.917 7.8672 3.269541 30.045835 -2.871232
2007-03-26 08:10:50 51°20.143 2°55.941 7.8624 3.269334 30.044552 -2.871232
2007-03-26 08:10:56 51°20.15 2°55.974 7.8654 3.269231 30.043498 -2.871232
2007-03-26 08:11:01 51°20.155 2°56.003 7.8604 3.268817 30.040108 -2.871232
2007-03-26 08:11:06 51°20.161 2°56.031 7.8628 3.268506 30.037772 -2.871232
2007-03-26 08:11:11 51°20.166 2°56.06 7.8637 3.268299 30.035665 -2.871232
2007-03-26 08:11:15 51°20.171 2°56.083 7.8618 3.268299 30.035665 -2.871232
2007-03-26 08:11:21 51°20.178 2°56.117 7.8633 3.267989 30.033328 -2.871232
2007-03-26 08:11:26 51°20.183 2°56.145 7.8632 3.267678 30.030991 -2.871232
2007-03-26 08:11:31 51°20.189 2°56.174 7.8612 3.267367 30.029477 -2.871232
2007-03-26 08:11:35 51°20.193 2°56.198 7.8611 3.267057 30.02714 -2.871232
2007-03-26 08:11:41 51°20.2 2°56.232 7.8609 3.26685 30.025033 -2.871232
2007-03-26 08:11:46 51°20.206 2°56.26 7.8618 3.266539 30.022696 -2.871232
2007-03-26 08:11:51 51°20.211 2°56.289 7.8601 3.266539 30.022696 -2.871232
2007-03-26 08:11:55 51°20.216 2°56.312 7.8594 3.266229 30.018712 -2.871232
2007-03-26 08:12:01 51°20.223 2°56.346 7.86 3.265815 30.015322 -2.871232
2007-03-26 08:12:06 51°20.228 2°56.375 7.8593 3.265504 30.012984 -2.871232
2007-03-26 08:12:11 51°20.234 2°56.403 7.8624 3.264987 30.007717 -2.871232
2007-03-26 08:12:15 51°20.238 2°56.426 7.863 3.264676 30.004557 -2.871232
2007-03-26 08:12:20 51°20.243 2°56.455 7.8613 3.264676 30.004557 -2.871232
2007-03-26 08:12:26 51°20.25 2°56.489 7.8644 3.264366 30.002219 -2.871232
2007-03-26 08:12:31 51°20.256 2°56.518 7.8622 3.264159 30.000112 -2.871232
2007-03-26 08:12:36 51°20.262 2°56.547 7.8649 3.264159 30.000112 -2.871232
2007-03-26 08:12:41 51°20.267 2°56.575 7.864 3.264262 30.001166 -2.871232
2007-03-26 08:12:46 51°20.273 2°56.604 7.8643 3.264262 30.001166 -2.871232
2007-03-26 08:12:51 51°20.278 2°56.632 7.8626 3.264366 30.001396 -2.871232
2007-03-26 08:12:56 51°20.284 2°56.661 7.8638 3.264366 30.000574 -2.871232
2007-03-26 08:13:01 51°20.29 2°56.69 7.8633 3.264262 29.99952 -2.871232
2007-03-26 08:13:06 51°20.296 2°56.718 7.8652 3.264055 29.996591 -2.871232
2007-03-26 08:13:10 51°20.3 2°56.741 7.8641 3.263848 29.993662 -2.871232
2007-03-26 08:13:16 51°20.308 2°56.776 7.8665 3.263538 29.990502 -2.871232
2007-03-26 08:13:21 51°20.313 2°56.805 7.8639 3.263538 29.990502 -2.871232
2007-03-26 08:13:25 51°20.318 2°56.827 7.8639 3.263124 29.986289 -2.871232
2007-03-26 08:13:30 51°20.323 2°56.856 7.8672 3.262606 29.981845 -2.871232
2007-03-26 08:13:35 51°20.329 2°56.885 7.8683 3.262192 29.977632 -2.871232
2007-03-26 08:13:41 51°20.336 2°56.919 7.8654 3.261778 29.973419 -2.871232
2007-03-26 08:13:46 51°20.342 2°56.948 7.8649 3.261467 29.969438 -2.871232
2007-03-26 08:13:51 51°20.347 2°56.977 7.8644 3.261467 29.969438 -2.871232
2007-03-26 08:13:55 51°20.352 2°57 7.8655 3.260846 29.963119 -2.871232
2007-03-26 08:14:01 51°20.359 2°57.034 7.8676 3.260536 29.959959 -2.871232